CPA42 VHHH-YMML
Flight info
| Callsign | CPA42 |
|---|---|
| Flight time | 8h 18m |
| Altitude | 31000 |
| Route | DALOL1C DALOL V642 NOMAN A461 AVMUP W16 MIA DCT LIGPA B472 COT R590 DULON/N0500F330 R590 BUTPA A461 ADKUL DCT 1053S13024E 1530S13159E 1708S13232E DCT KIKAN DCT 2403S13521E/N0484F350 2730S13720E 2918S13834E 3229S14102E DCT NATYA H119 ARBEY ARBEY8A |
| Aircraft | B77W/H-VGDW/C |
Departure
| Time | 2026-05-05 12:07 |
|---|---|
| Airport | Hong Kong International Airport (VHHH) |
Arrival
| Time | 2026-05-05 20:26 |
|---|---|
| Airport | Melbourne Airport (YMML) |
| Time | Latitude | Longitude | Altitude | Speed | Heading |
|---|---|---|---|---|---|
| 2026-05-05 11:34 | 22.31081 | 113.92551 | 40 ft | 0 kts | 115° |
| 2026-05-05 11:52 | 22.31089 | 113.92533 | 39 ft | 4 kts | 116° |
| 2026-05-05 11:52 | 22.31101 | 113.92507 | 38 ft | 4 kts | 116° |
| 2026-05-05 11:52 | 22.31110 | 113.92484 | 38 ft | 4 kts | 86° |
| 2026-05-05 11:52 | 22.31099 | 113.92463 | 37 ft | 4 kts | 32° |
| 2026-05-05 11:53 | 22.31078 | 113.92450 | 38 ft | 1 kts | 26° |
| 2026-05-05 11:53 | 22.31073 | 113.92448 | 37 ft | 0 kts | 26° |
| 2026-05-05 11:59 | 22.31096 | 113.92460 | 40 ft | 10 kts | 26° |
| 2026-05-05 11:59 | 22.31165 | 113.92496 | 40 ft | 11 kts | 25° |
| 2026-05-05 11:59 | 22.31239 | 113.92498 | 40 ft | 11 kts | 328° |
| 2026-05-05 11:59 | 22.31281 | 113.92427 | 40 ft | 11 kts | 298° |
| 2026-05-05 12:00 | 22.31304 | 113.92377 | 40 ft | 11 kts | 296° |
| 2026-05-05 12:00 | 22.31339 | 113.92300 | 40 ft | 11 kts | 295° |
| 2026-05-05 12:00 | 22.31373 | 113.92224 | 40 ft | 11 kts | 295° |
| 2026-05-05 12:00 | 22.31407 | 113.92147 | 40 ft | 11 kts | 295° |
| 2026-05-05 12:01 | 22.31455 | 113.92082 | 40 ft | 11 kts | 330° |
| 2026-05-05 12:01 | 22.31519 | 113.92035 | 40 ft | 12 kts | 296° |
| 2026-05-05 12:01 | 22.31510 | 113.91949 | 40 ft | 12 kts | 250° |
| 2026-05-05 12:01 | 22.31481 | 113.91861 | 40 ft | 14 kts | 251° |
| 2026-05-05 12:02 | 22.31445 | 113.91745 | 40 ft | 19 kts | 251° |
| 2026-05-05 12:02 | 22.31402 | 113.91615 | 40 ft | 18 kts | 250° |
| 2026-05-05 12:02 | 22.31361 | 113.91486 | 40 ft | 18 kts | 250° |
| 2026-05-05 12:02 | 22.31319 | 113.91356 | 40 ft | 18 kts | 251° |
| 2026-05-05 12:03 | 22.31278 | 113.91227 | 40 ft | 18 kts | 250° |
| 2026-05-05 12:03 | 22.31235 | 113.91098 | 40 ft | 18 kts | 250° |
| 2026-05-05 12:03 | 22.31194 | 113.90970 | 40 ft | 18 kts | 251° |
| 2026-05-05 12:03 | 22.31152 | 113.90841 | 40 ft | 18 kts | 251° |
| 2026-05-05 12:04 | 22.31111 | 113.90713 | 40 ft | 18 kts | 251° |
| 2026-05-05 12:04 | 22.31069 | 113.90584 | 40 ft | 18 kts | 251° |
| 2026-05-05 12:04 | 22.31028 | 113.90456 | 40 ft | 18 kts | 251° |
| 2026-05-05 12:04 | 22.30987 | 113.90327 | 40 ft | 18 kts | 251° |
| 2026-05-05 12:05 | 22.30946 | 113.90199 | 40 ft | 18 kts | 251° |
| 2026-05-05 12:05 | 22.30904 | 113.90070 | 40 ft | 18 kts | 251° |
| 2026-05-05 12:05 | 22.30887 | 113.89949 | 40 ft | 17 kts | 300° |
| 2026-05-05 12:05 | 22.30983 | 113.89893 | 40 ft | 15 kts | 338° |
| 2026-05-05 12:06 | 22.31084 | 113.89861 | 40 ft | 15 kts | 4° |
| 2026-05-05 12:06 | 22.31136 | 113.89929 | 40 ft | 7 kts | 69° |
| 2026-05-05 12:06 | 22.31143 | 113.89949 | 40 ft | 0 kts | 70° |
| 2026-05-05 12:06 | 22.31158 | 113.89993 | 40 ft | 26 kts | 70° |
| 2026-05-05 12:07 | 22.31319 | 113.90487 | 40 ft | 113 kts | 71° |
| 2026-05-05 12:07 | 22.31673 | 113.91585 | 40 ft | 195 kts | 70° |
| 2026-05-05 12:07 | 22.32192 | 113.93175 | 369 ft | 239 kts | 71° |
| 2026-05-05 12:07 | 22.32726 | 113.94816 | 1830 ft | 220 kts | 71° |
| 2026-05-05 12:08 | 22.33227 | 113.96327 | 2659 ft | 215 kts | 73° |
| 2026-05-05 12:08 | 22.33605 | 113.97957 | 2816 ft | 232 kts | 82° |
| 2026-05-05 12:08 | 22.33876 | 113.99729 | 3090 ft | 246 kts | 82° |
| 2026-05-05 12:08 | 22.34160 | 114.01588 | 3472 ft | 255 kts | 82° |
| 2026-05-05 12:09 | 22.34417 | 114.03489 | 3952 ft | 257 kts | 90° |
| 2026-05-05 12:09 | 22.34148 | 114.05395 | 4374 ft | 260 kts | 114° |
| 2026-05-05 12:09 | 22.33198 | 114.07054 | 4871 ft | 261 kts | 138° |
| 2026-05-05 12:09 | 22.31758 | 114.08176 | 5457 ft | 255 kts | 160° |
| 2026-05-05 12:10 | 22.30043 | 114.08670 | 5918 ft | 257 kts | 176° |
| 2026-05-05 12:10 | 22.28242 | 114.08750 | 6386 ft | 261 kts | 182° |
| 2026-05-05 12:10 | 22.26436 | 114.08744 | 6933 ft | 261 kts | 182° |
| 2026-05-05 12:10 | 22.24602 | 114.08725 | 7358 ft | 266 kts | 183° |
| 2026-05-05 12:11 | 22.22773 | 114.08690 | 7878 ft | 267 kts | 183° |
| 2026-05-05 12:11 | 22.20910 | 114.08662 | 8398 ft | 268 kts | 182° |
| 2026-05-05 12:11 | 22.19038 | 114.08640 | 8903 ft | 270 kts | 182° |
| 2026-05-05 12:11 | 22.17163 | 114.08827 | 9294 ft | 277 kts | 162° |
| 2026-05-05 12:12 | 22.15541 | 114.09976 | 9606 ft | 287 kts | 130° |
| 2026-05-05 12:12 | 22.14507 | 114.11836 | 9934 ft | 293 kts | 120° |
| 2026-05-05 12:12 | 22.13582 | 114.13812 | 10252 ft | 302 kts | 120° |
| 2026-05-05 12:12 | 22.12605 | 114.15885 | 10373 ft | 318 kts | 119° |
| 2026-05-05 12:13 | 22.11575 | 114.18073 | 10517 ft | 336 kts | 118° |
| 2026-05-05 12:13 | 22.10488 | 114.20377 | 10634 ft | 355 kts | 118° |
| 2026-05-05 12:13 | 22.09332 | 114.22813 | 10776 ft | 373 kts | 119° |
| 2026-05-05 12:13 | 22.08103 | 114.25331 | 11015 ft | 382 kts | 123° |
| 2026-05-05 12:14 | 22.06354 | 114.27492 | 11285 ft | 385 kts | 146° |
| 2026-05-05 12:14 | 22.04128 | 114.29129 | 11594 ft | 392 kts | 148° |
| 2026-05-05 12:14 | 22.01871 | 114.30820 | 12146 ft | 398 kts | 147° |
| 2026-05-05 12:14 | 21.99619 | 114.32578 | 12766 ft | 401 kts | 146° |
| 2026-05-05 12:15 | 21.97358 | 114.34365 | 13362 ft | 405 kts | 147° |
| 2026-05-05 12:15 | 21.95072 | 114.36171 | 13916 ft | 410 kts | 147° |
| 2026-05-05 12:15 | 21.92758 | 114.37996 | 14399 ft | 415 kts | 147° |
| 2026-05-05 12:15 | 21.90419 | 114.39837 | 14902 ft | 418 kts | 147° |
| 2026-05-05 12:16 | 21.88061 | 114.41693 | 15410 ft | 422 kts | 147° |
| 2026-05-05 12:16 | 21.85788 | 114.43695 | 15772 ft | 428 kts | 135° |
| 2026-05-05 12:16 | 21.84156 | 114.46434 | 16052 ft | 443 kts | 112° |
| 2026-05-05 12:16 | 21.83311 | 114.49629 | 16483 ft | 445 kts | 105° |
| 2026-05-05 12:17 | 21.82538 | 114.52882 | 16898 ft | 451 kts | 106° |
| 2026-05-05 12:17 | 21.81733 | 114.56109 | 17378 ft | 454 kts | 107° |
| 2026-05-05 12:17 | 21.80893 | 114.59399 | 17860 ft | 458 kts | 107° |
| 2026-05-05 12:17 | 21.80037 | 114.62716 | 18317 ft | 462 kts | 107° |
| 2026-05-05 12:18 | 21.79173 | 114.66050 | 18758 ft | 464 kts | 107° |
| 2026-05-05 12:18 | 21.78304 | 114.69399 | 19214 ft | 466 kts | 107° |
| 2026-05-05 12:18 | 21.77429 | 114.72769 | 19624 ft | 469 kts | 107° |
| 2026-05-05 12:18 | 21.76550 | 114.76159 | 20037 ft | 472 kts | 107° |
| 2026-05-05 12:19 | 21.75665 | 114.79566 | 20440 ft | 475 kts | 107° |
| 2026-05-05 12:19 | 21.74765 | 114.82995 | 20832 ft | 476 kts | 109° |
| 2026-05-05 12:19 | 21.73458 | 114.86259 | 21105 ft | 475 kts | 127° |
| 2026-05-05 12:19 | 21.71456 | 114.89062 | 21407 ft | 473 kts | 133° |
| 2026-05-05 12:20 | 21.69342 | 114.91796 | 21789 ft | 477 kts | 133° |
| 2026-05-05 12:20 | 21.67269 | 114.94590 | 22207 ft | 480 kts | 131° |
| 2026-05-05 12:20 | 21.65231 | 114.97446 | 22600 ft | 482 kts | 130° |
| 2026-05-05 12:20 | 21.63200 | 115.00329 | 22989 ft | 485 kts | 130° |
| 2026-05-05 12:21 | 21.61158 | 115.03224 | 23335 ft | 488 kts | 131° |
| 2026-05-05 12:21 | 21.59095 | 115.06134 | 23674 ft | 491 kts | 131° |
| 2026-05-05 12:21 | 21.57016 | 115.09061 | 23945 ft | 494 kts | 131° |
| 2026-05-05 12:21 | 21.54928 | 115.12000 | 24232 ft | 497 kts | 131° |
| 2026-05-05 12:22 | 21.52827 | 115.14954 | 24510 ft | 499 kts | 130° |
| 2026-05-05 12:22 | 21.50714 | 115.17925 | 24791 ft | 502 kts | 130° |
| 2026-05-05 12:22 | 21.48589 | 115.20909 | 25064 ft | 504 kts | 130° |
| 2026-05-05 12:22 | 21.46453 | 115.23908 | 25336 ft | 507 kts | 130° |
| 2026-05-05 12:23 | 21.44306 | 115.26923 | 25589 ft | 510 kts | 130° |
| 2026-05-05 12:23 | 21.42147 | 115.29954 | 25867 ft | 512 kts | 130° |
| 2026-05-05 12:23 | 21.39978 | 115.32996 | 26134 ft | 515 kts | 130° |
| 2026-05-05 12:23 | 21.37800 | 115.36051 | 26408 ft | 516 kts | 130° |
| 2026-05-05 12:24 | 21.35617 | 115.39112 | 26757 ft | 517 kts | 130° |
| 2026-05-05 12:24 | 21.33430 | 115.42176 | 27017 ft | 519 kts | 130° |
| 2026-05-05 12:24 | 21.31227 | 115.45259 | 27252 ft | 522 kts | 130° |
| 2026-05-05 12:24 | 21.29013 | 115.48358 | 27473 ft | 525 kts | 130° |
| 2026-05-05 12:25 | 21.26787 | 115.51469 | 27714 ft | 527 kts | 130° |
| 2026-05-05 12:25 | 21.24550 | 115.54596 | 27961 ft | 529 kts | 130° |
| 2026-05-05 12:25 | 21.22333 | 115.57693 | 28194 ft | 531 kts | 130° |
| 2026-05-05 12:25 | 21.20080 | 115.60838 | 28422 ft | 534 kts | 130° |
| 2026-05-05 12:26 | 21.17816 | 115.63998 | 28636 ft | 536 kts | 130° |
| 2026-05-05 12:26 | 21.15545 | 115.67165 | 28891 ft | 537 kts | 130° |
| 2026-05-05 12:26 | 21.13268 | 115.70339 | 29143 ft | 537 kts | 130° |
| 2026-05-05 12:26 | 21.10988 | 115.73515 | 29417 ft | 538 kts | 130° |
| 2026-05-05 12:27 | 21.08711 | 115.76686 | 29722 ft | 537 kts | 130° |
| 2026-05-05 12:27 | 21.06432 | 115.79857 | 30051 ft | 537 kts | 130° |
| 2026-05-05 12:27 | 21.04152 | 115.83028 | 30313 ft | 537 kts | 130° |
| 2026-05-05 12:27 | 21.01876 | 115.86191 | 30583 ft | 536 kts | 130° |
| 2026-05-05 12:28 | 20.99604 | 115.89347 | 30837 ft | 536 kts | 130° |
| 2026-05-05 12:28 | 20.97324 | 115.92512 | 30916 ft | 538 kts | 130° |
| 2026-05-05 12:28 | 20.92768 | 115.98835 | 30994 ft | 533 kts | 130° |
| 2026-05-05 12:29 | 20.88248 | 116.05085 | 30990 ft | 530 kts | 131° |
| 2026-05-05 12:29 | 20.83127 | 116.10677 | 30992 ft | 524 kts | 143° |
| 2026-05-05 12:30 | 20.77257 | 116.15212 | 30985 ft | 519 kts | 152° |
| 2026-05-05 12:30 | 20.71109 | 116.19294 | 30984 ft | 520 kts | 152° |
| 2026-05-05 12:31 | 20.64960 | 116.23405 | 30981 ft | 522 kts | 152° |
| 2026-05-05 12:31 | 20.58816 | 116.27553 | 30967 ft | 522 kts | 151° |
| 2026-05-05 12:32 | 20.52695 | 116.31697 | 30964 ft | 520 kts | 151° |
| 2026-05-05 12:32 | 20.46585 | 116.35828 | 30965 ft | 519 kts | 151° |
| 2026-05-05 12:33 | 20.40493 | 116.39939 | 30961 ft | 518 kts | 151° |
| 2026-05-05 12:33 | 20.34412 | 116.44038 | 30964 ft | 517 kts | 151° |
| 2026-05-05 12:34 | 20.28340 | 116.48127 | 30954 ft | 516 kts | 151° |
| 2026-05-05 12:34 | 20.22305 | 116.52187 | 30962 ft | 516 kts | 151° |
| 2026-05-05 12:35 | 20.16241 | 116.56264 | 30964 ft | 516 kts | 151° |
| 2026-05-05 12:35 | 20.10165 | 116.60346 | 30965 ft | 516 kts | 151° |
| 2026-05-05 12:36 | 20.04096 | 116.64420 | 30960 ft | 516 kts | 151° |
| 2026-05-05 12:36 | 19.98366 | 116.69070 | 30957 ft | 521 kts | 140° |
| 2026-05-05 12:37 | 19.93382 | 116.74697 | 30967 ft | 522 kts | 135° |
| 2026-05-05 12:37 | 19.88522 | 116.80439 | 30957 ft | 523 kts | 135° |
| 2026-05-05 12:38 | 19.83630 | 116.86154 | 30957 ft | 523 kts | 135° |
| 2026-05-05 12:38 | 19.78717 | 116.91845 | 30958 ft | 522 kts | 135° |
| 2026-05-05 12:39 | 19.73804 | 116.97520 | 30953 ft | 522 kts | 135° |
| 2026-05-05 12:39 | 19.68899 | 117.03185 | 30951 ft | 521 kts | 135° |
| 2026-05-05 12:40 | 19.63996 | 117.08844 | 30952 ft | 521 kts | 135° |
| 2026-05-05 12:40 | 19.59097 | 117.14494 | 30937 ft | 520 kts | 135° |
| 2026-05-05 12:41 | 19.54228 | 117.20104 | 30949 ft | 519 kts | 135° |
| 2026-05-05 12:41 | 19.49338 | 117.25733 | 30944 ft | 519 kts | 135° |
| 2026-05-05 12:42 | 19.44457 | 117.31346 | 30940 ft | 518 kts | 135° |
| 2026-05-05 12:42 | 19.39572 | 117.36957 | 30943 ft | 517 kts | 135° |
| 2026-05-05 12:43 | 19.34695 | 117.42555 | 30943 ft | 517 kts | 135° |
| 2026-05-05 12:43 | 19.29815 | 117.48150 | 30940 ft | 517 kts | 135° |
| 2026-05-05 12:44 | 19.24929 | 117.53748 | 30937 ft | 517 kts | 135° |
| 2026-05-05 12:44 | 19.20043 | 117.59340 | 30931 ft | 517 kts | 135° |
| 2026-05-05 12:45 | 19.15163 | 117.64920 | 30937 ft | 516 kts | 135° |
| 2026-05-05 12:45 | 19.10285 | 117.70494 | 30937 ft | 516 kts | 135° |
| 2026-05-05 12:46 | 19.05405 | 117.76065 | 30937 ft | 516 kts | 135° |
| 2026-05-05 12:46 | 19.00527 | 117.81626 | 30937 ft | 516 kts | 135° |
| 2026-05-05 12:47 | 18.95647 | 117.87181 | 30932 ft | 516 kts | 135° |
| 2026-05-05 12:47 | 18.91585 | 117.91801 | 30931 ft | 516 kts | 135° |
| 2026-05-05 12:48 | 18.85910 | 117.98254 | 30932 ft | 516 kts | 135° |
| 2026-05-05 12:48 | 18.81021 | 118.03807 | 30927 ft | 516 kts | 135° |
| 2026-05-05 12:49 | 18.76927 | 118.08454 | 30929 ft | 515 kts | 136° |
| 2026-05-05 12:49 | 18.72078 | 118.13953 | 30929 ft | 515 kts | 136° |
| 2026-05-05 12:50 | 18.67194 | 118.19486 | 30922 ft | 515 kts | 136° |
| 2026-05-05 12:50 | 18.62313 | 118.25011 | 30923 ft | 515 kts | 136° |
| 2026-05-05 12:51 | 18.57434 | 118.30528 | 30926 ft | 515 kts | 136° |
| 2026-05-05 12:51 | 18.52549 | 118.36048 | 30926 ft | 515 kts | 136° |
| 2026-05-05 12:52 | 18.47665 | 118.41561 | 30919 ft | 514 kts | 136° |
| 2026-05-05 12:52 | 18.42792 | 118.47058 | 30920 ft | 513 kts | 136° |
| 2026-05-05 12:53 | 18.37924 | 118.52544 | 30921 ft | 512 kts | 136° |
| 2026-05-05 12:53 | 18.33060 | 118.58021 | 30920 ft | 512 kts | 136° |
| 2026-05-05 12:54 | 18.25768 | 118.66221 | 30916 ft | 512 kts | 136° |
| 2026-05-05 12:55 | 18.20899 | 118.71691 | 30919 ft | 512 kts | 136° |
| 2026-05-05 12:55 | 18.16026 | 118.77161 | 30920 ft | 513 kts | 136° |
| 2026-05-05 12:56 | 18.11143 | 118.82638 | 30912 ft | 514 kts | 136° |
| 2026-05-05 12:56 | 18.06284 | 118.88084 | 30918 ft | 514 kts | 136° |
| 2026-05-05 12:57 | 18.01334 | 118.93497 | 30909 ft | 513 kts | 140° |
| 2026-05-05 12:57 | 17.95708 | 118.98030 | 30912 ft | 508 kts | 151° |
| 2026-05-05 12:58 | 17.89555 | 119.01627 | 30916 ft | 505 kts | 155° |
| 2026-05-05 12:58 | 17.83371 | 119.05143 | 30912 ft | 506 kts | 154° |
| 2026-05-05 12:59 | 17.77201 | 119.08687 | 30912 ft | 506 kts | 154° |
| 2026-05-05 12:59 | 17.71047 | 119.12247 | 30909 ft | 504 kts | 154° |
| 2026-05-05 13:00 | 17.61843 | 119.17576 | 30912 ft | 503 kts | 154° |
| 2026-05-05 13:01 | 17.49598 | 119.24648 | 30912 ft | 502 kts | 154° |
| 2026-05-05 13:01 | 17.43487 | 119.28173 | 30917 ft | 502 kts | 154° |
| 2026-05-05 13:02 | 17.37375 | 119.31696 | 30909 ft | 501 kts | 154° |
| 2026-05-05 13:02 | 17.31269 | 119.35212 | 30907 ft | 501 kts | 154° |
| 2026-05-05 13:03 | 17.25170 | 119.38723 | 30915 ft | 500 kts | 154° |
| 2026-05-05 13:03 | 17.19067 | 119.42233 | 30916 ft | 501 kts | 154° |
| 2026-05-05 13:04 | 17.12960 | 119.45741 | 30921 ft | 501 kts | 154° |
| 2026-05-05 13:04 | 17.06896 | 119.49224 | 30911 ft | 501 kts | 153° |
| 2026-05-05 13:05 | 17.00784 | 119.52731 | 30918 ft | 501 kts | 153° |
| 2026-05-05 13:05 | 16.94662 | 119.56241 | 30926 ft | 502 kts | 154° |
| 2026-05-05 13:06 | 16.88540 | 119.59748 | 30921 ft | 502 kts | 154° |
| 2026-05-05 13:06 | 16.82407 | 119.63259 | 30922 ft | 503 kts | 154° |
| 2026-05-05 13:07 | 16.76270 | 119.66770 | 30919 ft | 503 kts | 154° |
| 2026-05-05 13:07 | 16.70131 | 119.70280 | 30916 ft | 503 kts | 154° |
| 2026-05-05 13:08 | 16.63997 | 119.73783 | 30922 ft | 502 kts | 154° |
| 2026-05-05 13:08 | 16.57868 | 119.77282 | 30911 ft | 502 kts | 154° |
| 2026-05-05 13:09 | 16.51748 | 119.80773 | 30917 ft | 501 kts | 154° |
| 2026-05-05 13:09 | 16.45630 | 119.84260 | 30930 ft | 501 kts | 154° |
| 2026-05-05 13:10 | 16.39522 | 119.87739 | 30915 ft | 500 kts | 154° |
| 2026-05-05 13:10 | 16.33422 | 119.91210 | 30913 ft | 500 kts | 154° |
| 2026-05-05 13:11 | 16.27323 | 119.94679 | 30932 ft | 499 kts | 154° |
| 2026-05-05 13:11 | 16.21228 | 119.98143 | 30932 ft | 499 kts | 154° |
| 2026-05-05 13:12 | 16.15130 | 120.01607 | 30929 ft | 499 kts | 154° |
| 2026-05-05 13:12 | 16.09032 | 120.05067 | 30922 ft | 500 kts | 154° |
| 2026-05-05 13:13 | 16.02932 | 120.08527 | 30923 ft | 499 kts | 154° |
| 2026-05-05 13:13 | 15.96871 | 120.11963 | 30930 ft | 499 kts | 154° |
| 2026-05-05 13:14 | 15.90777 | 120.15413 | 30928 ft | 499 kts | 154° |
| 2026-05-05 13:14 | 15.84685 | 120.18862 | 30929 ft | 498 kts | 154° |
| 2026-05-05 13:15 | 15.78606 | 120.22300 | 30937 ft | 497 kts | 154° |
| 2026-05-05 13:15 | 15.72537 | 120.25731 | 30938 ft | 497 kts | 153° |
| 2026-05-05 13:16 | 15.66471 | 120.29159 | 30942 ft | 497 kts | 153° |
| 2026-05-05 13:16 | 15.60397 | 120.32585 | 30941 ft | 497 kts | 153° |
| 2026-05-05 13:17 | 15.54316 | 120.36015 | 30945 ft | 498 kts | 153° |
| 2026-05-05 13:17 | 15.48229 | 120.39445 | 30946 ft | 498 kts | 153° |
| 2026-05-05 13:18 | 15.42143 | 120.42873 | 30934 ft | 498 kts | 153° |
| 2026-05-05 13:18 | 15.36058 | 120.46298 | 30936 ft | 497 kts | 153° |
| 2026-05-05 13:19 | 15.29977 | 120.49717 | 30939 ft | 497 kts | 153° |
| 2026-05-05 13:19 | 15.23904 | 120.53133 | 30940 ft | 497 kts | 153° |
| 2026-05-05 13:20 | 15.17851 | 120.56589 | 30937 ft | 497 kts | 150° |
| 2026-05-05 13:20 | 15.12070 | 120.60521 | 30946 ft | 497 kts | 148° |
| 2026-05-05 13:21 | 15.06310 | 120.64490 | 30937 ft | 497 kts | 148° |
| 2026-05-05 13:21 | 15.00537 | 120.68426 | 30928 ft | 497 kts | 148° |
| 2026-05-05 13:22 | 14.94763 | 120.72351 | 30926 ft | 496 kts | 148° |
| 2026-05-05 13:22 | 14.88991 | 120.76273 | 30918 ft | 496 kts | 148° |
| 2026-05-05 13:23 | 14.83222 | 120.80191 | 30912 ft | 496 kts | 148° |
| 2026-05-05 13:23 | 14.77457 | 120.84106 | 30912 ft | 496 kts | 148° |
| 2026-05-05 13:24 | 14.71687 | 120.88022 | 30910 ft | 496 kts | 148° |
| 2026-05-05 13:24 | 14.65925 | 120.91927 | 30909 ft | 496 kts | 148° |
| 2026-05-05 13:25 | 14.60161 | 120.95832 | 30916 ft | 495 kts | 148° |
| 2026-05-05 13:25 | 14.54377 | 120.99702 | 30909 ft | 495 kts | 151° |
| 2026-05-05 13:26 | 14.48090 | 121.02533 | 30918 ft | 492 kts | 163° |
| 2026-05-05 13:26 | 14.41470 | 121.04051 | 30904 ft | 491 kts | 171° |
| 2026-05-05 13:27 | 14.34750 | 121.05257 | 30901 ft | 490 kts | 171° |
| 2026-05-05 13:27 | 14.28036 | 121.06503 | 30918 ft | 490 kts | 170° |
| 2026-05-05 13:28 | 14.21332 | 121.07774 | 30930 ft | 490 kts | 170° |
| 2026-05-05 13:28 | 14.14627 | 121.09059 | 30939 ft | 490 kts | 171° |
| 2026-05-05 13:29 | 14.07924 | 121.10333 | 30928 ft | 490 kts | 170° |
| 2026-05-05 13:29 | 14.01221 | 121.11606 | 30939 ft | 490 kts | 170° |
| 2026-05-05 13:30 | 13.94571 | 121.13184 | 30931 ft | 492 kts | 162° |
| 2026-05-05 13:30 | 13.88245 | 121.15872 | 30946 ft | 492 kts | 156° |
| 2026-05-05 13:31 | 13.81970 | 121.18726 | 30937 ft | 493 kts | 157° |
| 2026-05-05 13:31 | 13.75665 | 121.21523 | 30942 ft | 494 kts | 158° |
| 2026-05-05 13:32 | 13.69354 | 121.24316 | 30944 ft | 494 kts | 157° |
| 2026-05-05 13:32 | 13.63075 | 121.27099 | 30948 ft | 495 kts | 158° |
| 2026-05-05 13:33 | 13.56758 | 121.29900 | 30937 ft | 494 kts | 157° |
| 2026-05-05 13:33 | 13.50447 | 121.32692 | 30944 ft | 493 kts | 158° |
| 2026-05-05 13:34 | 13.44149 | 121.35471 | 30944 ft | 492 kts | 158° |
| 2026-05-05 13:34 | 13.37853 | 121.38249 | 30945 ft | 492 kts | 157° |
| 2026-05-05 13:35 | 13.31556 | 121.41027 | 30959 ft | 493 kts | 157° |
| 2026-05-05 13:35 | 13.25247 | 121.43809 | 30949 ft | 494 kts | 157° |
| 2026-05-05 13:36 | 13.18927 | 121.46595 | 30949 ft | 495 kts | 157° |
| 2026-05-05 13:36 | 13.12598 | 121.49383 | 30953 ft | 495 kts | 157° |
| 2026-05-05 13:37 | 13.07293 | 121.51718 | 30956 ft | 495 kts | 157° |
| 2026-05-05 13:37 | 13.00957 | 121.54506 | 30939 ft | 495 kts | 157° |
| 2026-05-05 13:38 | 12.94628 | 121.57289 | 30943 ft | 495 kts | 158° |
| 2026-05-05 13:38 | 12.88322 | 121.60061 | 30942 ft | 494 kts | 158° |
| 2026-05-05 13:39 | 12.81994 | 121.62841 | 30944 ft | 493 kts | 158° |
| 2026-05-05 13:39 | 12.75684 | 121.65612 | 30936 ft | 493 kts | 158° |
| 2026-05-05 13:40 | 12.69419 | 121.68361 | 30934 ft | 493 kts | 157° |
| 2026-05-05 13:40 | 12.63109 | 121.71129 | 30930 ft | 494 kts | 157° |
| 2026-05-05 13:41 | 12.56790 | 121.73899 | 30931 ft | 494 kts | 157° |
| 2026-05-05 13:41 | 12.50514 | 121.76648 | 30930 ft | 494 kts | 157° |
| 2026-05-05 13:42 | 12.44143 | 121.79439 | 30928 ft | 494 kts | 157° |
| 2026-05-05 13:42 | 12.37823 | 121.82206 | 30919 ft | 494 kts | 157° |
| 2026-05-05 13:43 | 12.31509 | 121.84964 | 30927 ft | 493 kts | 158° |
| 2026-05-05 13:43 | 12.25200 | 121.87718 | 30913 ft | 493 kts | 158° |
| 2026-05-05 13:44 | 12.18897 | 121.90467 | 30922 ft | 492 kts | 158° |
| 2026-05-05 13:44 | 12.12613 | 121.93208 | 30914 ft | 492 kts | 157° |
| 2026-05-05 13:45 | 12.06310 | 121.95956 | 30925 ft | 492 kts | 157° |
| 2026-05-05 13:45 | 12.00008 | 121.98703 | 30923 ft | 493 kts | 157° |
| 2026-05-05 13:46 | 11.93691 | 122.01454 | 30924 ft | 493 kts | 157° |
| 2026-05-05 13:46 | 11.87375 | 122.04204 | 30920 ft | 494 kts | 157° |
| 2026-05-05 13:47 | 11.81052 | 122.06955 | 30921 ft | 494 kts | 157° |
| 2026-05-05 13:47 | 11.74768 | 122.09687 | 30916 ft | 494 kts | 157° |
| 2026-05-05 13:48 | 11.68414 | 122.12449 | 30901 ft | 493 kts | 157° |
| 2026-05-05 13:48 | 11.62160 | 122.15167 | 30901 ft | 492 kts | 157° |
| 2026-05-05 13:49 | 11.55865 | 122.17900 | 30912 ft | 491 kts | 157° |
| 2026-05-05 13:49 | 11.49583 | 122.20627 | 30917 ft | 490 kts | 157° |
| 2026-05-05 13:50 | 11.43301 | 122.23351 | 30917 ft | 491 kts | 157° |
| 2026-05-05 13:50 | 11.37020 | 122.26077 | 30932 ft | 491 kts | 157° |
| 2026-05-05 13:51 | 11.30719 | 122.28808 | 30943 ft | 493 kts | 157° |
| 2026-05-05 13:51 | 11.24404 | 122.31544 | 30943 ft | 494 kts | 157° |
| 2026-05-05 13:52 | 11.18069 | 122.34288 | 30945 ft | 495 kts | 157° |
| 2026-05-05 13:52 | 11.11726 | 122.37032 | 30943 ft | 496 kts | 157° |
| 2026-05-05 13:53 | 11.05373 | 122.39776 | 30944 ft | 496 kts | 157° |
| 2026-05-05 13:53 | 10.99014 | 122.42524 | 30940 ft | 497 kts | 157° |
| 2026-05-05 13:54 | 10.92654 | 122.45271 | 30933 ft | 496 kts | 157° |
| 2026-05-05 13:54 | 10.86300 | 122.48016 | 30928 ft | 496 kts | 157° |
| 2026-05-05 13:55 | 10.79970 | 122.50811 | 30928 ft | 495 kts | 155° |
| 2026-05-05 13:55 | 10.73740 | 122.53790 | 30912 ft | 495 kts | 155° |
| 2026-05-05 13:56 | 10.67516 | 122.56782 | 30912 ft | 494 kts | 155° |
| 2026-05-05 13:56 | 10.61290 | 122.59738 | 30912 ft | 494 kts | 155° |
| 2026-05-05 13:57 | 10.55060 | 122.62681 | 30910 ft | 493 kts | 155° |
| 2026-05-05 13:57 | 10.48837 | 122.65621 | 30908 ft | 493 kts | 155° |
| 2026-05-05 13:58 | 10.42612 | 122.68562 | 30907 ft | 494 kts | 155° |
| 2026-05-05 13:58 | 10.36367 | 122.71510 | 30914 ft | 496 kts | 155° |
| 2026-05-05 13:59 | 10.26965 | 122.75944 | 30919 ft | 498 kts | 155° |
| 2026-05-05 14:00 | 10.18601 | 122.79889 | 30920 ft | 498 kts | 155° |
| 2026-05-05 14:00 | 10.11295 | 122.83330 | 30923 ft | 498 kts | 155° |
| 2026-05-05 14:01 | 10.05019 | 122.86286 | 30925 ft | 497 kts | 155° |
| 2026-05-05 14:01 | 9.98757 | 122.89234 | 30929 ft | 496 kts | 155° |
| 2026-05-05 14:02 | 9.92512 | 122.92173 | 30932 ft | 493 kts | 155° |
| 2026-05-05 14:02 | 9.86295 | 122.95100 | 30925 ft | 492 kts | 155° |
| 2026-05-05 14:03 | 9.80089 | 122.98019 | 30930 ft | 492 kts | 155° |
| 2026-05-05 14:03 | 9.73883 | 123.00934 | 30940 ft | 492 kts | 155° |
| 2026-05-05 14:04 | 9.67674 | 123.03851 | 30931 ft | 492 kts | 155° |
| 2026-05-05 14:04 | 9.61462 | 123.06770 | 30932 ft | 493 kts | 155° |
| 2026-05-05 14:05 | 9.55242 | 123.09689 | 30928 ft | 493 kts | 155° |
| 2026-05-05 14:05 | 9.49020 | 123.12610 | 30908 ft | 493 kts | 155° |
| 2026-05-05 14:06 | 9.42802 | 123.15529 | 30893 ft | 493 kts | 155° |
| 2026-05-05 14:06 | 9.36576 | 123.18449 | 30891 ft | 494 kts | 155° |
| 2026-05-05 14:07 | 9.30336 | 123.21374 | 30897 ft | 495 kts | 155° |
| 2026-05-05 14:07 | 9.24086 | 123.24304 | 30888 ft | 495 kts | 155° |
| 2026-05-05 14:08 | 9.17831 | 123.27236 | 30885 ft | 496 kts | 155° |
| 2026-05-05 14:08 | 9.11574 | 123.30165 | 30919 ft | 495 kts | 155° |
| 2026-05-05 14:09 | 9.05312 | 123.33097 | 30912 ft | 496 kts | 155° |
| 2026-05-05 14:09 | 8.99091 | 123.36007 | 30913 ft | 496 kts | 155° |
| 2026-05-05 14:10 | 8.92826 | 123.38938 | 30914 ft | 497 kts | 155° |
| 2026-05-05 14:10 | 8.86550 | 123.41874 | 30909 ft | 497 kts | 155° |
| 2026-05-05 14:11 | 8.80273 | 123.44809 | 30913 ft | 497 kts | 155° |
| 2026-05-05 14:11 | 8.73999 | 123.47741 | 30916 ft | 496 kts | 155° |
| 2026-05-05 14:12 | 8.67743 | 123.50665 | 30912 ft | 495 kts | 155° |
| 2026-05-05 14:12 | 8.61499 | 123.53581 | 30921 ft | 494 kts | 155° |
| 2026-05-05 14:13 | 8.55270 | 123.56490 | 30926 ft | 493 kts | 155° |
| 2026-05-05 14:13 | 8.49044 | 123.59396 | 30923 ft | 494 kts | 155° |
| 2026-05-05 14:14 | 8.42798 | 123.62310 | 30939 ft | 495 kts | 155° |
| 2026-05-05 14:14 | 8.36536 | 123.65230 | 30938 ft | 497 kts | 155° |
| 2026-05-05 14:15 | 8.30252 | 123.68160 | 30947 ft | 498 kts | 155° |
| 2026-05-05 14:15 | 8.23954 | 123.71095 | 30940 ft | 499 kts | 155° |
| 2026-05-05 14:16 | 8.17657 | 123.74029 | 30937 ft | 498 kts | 155° |
| 2026-05-05 14:16 | 8.11370 | 123.76957 | 30938 ft | 497 kts | 155° |
| 2026-05-05 14:17 | 8.05131 | 123.79862 | 30933 ft | 497 kts | 155° |
| 2026-05-05 14:17 | 7.98864 | 123.82779 | 30934 ft | 496 kts | 155° |
| 2026-05-05 14:18 | 7.92596 | 123.85696 | 30928 ft | 496 kts | 155° |
| 2026-05-05 14:18 | 7.86329 | 123.88610 | 30931 ft | 495 kts | 155° |
| 2026-05-05 14:19 | 7.80072 | 123.91519 | 30929 ft | 495 kts | 155° |
| 2026-05-05 14:19 | 7.73822 | 123.94424 | 30928 ft | 495 kts | 155° |
| 2026-05-05 14:20 | 7.67571 | 123.97329 | 30919 ft | 495 kts | 155° |
| 2026-05-05 14:20 | 7.61320 | 124.00232 | 30921 ft | 495 kts | 155° |
| 2026-05-05 14:21 | 7.55066 | 124.03137 | 30919 ft | 495 kts | 154° |
| 2026-05-05 14:21 | 7.48824 | 124.06035 | 30919 ft | 494 kts | 155° |
| 2026-05-05 14:22 | 7.42591 | 124.08927 | 30912 ft | 493 kts | 154° |
| 2026-05-05 14:22 | 7.36371 | 124.11813 | 30912 ft | 492 kts | 154° |
| 2026-05-05 14:23 | 7.30163 | 124.14692 | 30911 ft | 491 kts | 155° |
| 2026-05-05 14:23 | 7.25000 | 124.17087 | 30913 ft | 491 kts | 155° |
| 2026-05-05 14:24 | 7.18789 | 124.19966 | 30906 ft | 492 kts | 155° |
| 2026-05-05 14:24 | 7.12459 | 124.22596 | 30914 ft | 493 kts | 159° |
| 2026-05-05 14:25 | 7.05988 | 124.24883 | 30915 ft | 493 kts | 160° |
| 2026-05-05 14:25 | 6.99509 | 124.27159 | 30914 ft | 493 kts | 160° |
| 2026-05-05 14:26 | 6.93042 | 124.29475 | 30920 ft | 493 kts | 160° |
| 2026-05-05 14:26 | 6.86577 | 124.31813 | 30923 ft | 494 kts | 160° |
| 2026-05-05 14:27 | 6.80109 | 124.34154 | 30929 ft | 494 kts | 160° |
| 2026-05-05 14:27 | 6.73677 | 124.36478 | 30939 ft | 494 kts | 160° |
| 2026-05-05 14:28 | 6.67197 | 124.38818 | 30938 ft | 495 kts | 160° |
| 2026-05-05 14:28 | 6.60723 | 124.41155 | 30948 ft | 494 kts | 160° |
| 2026-05-05 14:29 | 6.54244 | 124.43493 | 30942 ft | 494 kts | 160° |
| 2026-05-05 14:29 | 6.47770 | 124.45829 | 30948 ft | 494 kts | 160° |
| 2026-05-05 14:30 | 6.41294 | 124.48165 | 30947 ft | 494 kts | 160° |
| 2026-05-05 14:30 | 6.34819 | 124.50500 | 30948 ft | 494 kts | 160° |
| 2026-05-05 14:31 | 6.28351 | 124.52832 | 30946 ft | 494 kts | 160° |
| 2026-05-05 14:31 | 6.21882 | 124.55164 | 30947 ft | 494 kts | 160° |
| 2026-05-05 14:32 | 6.15417 | 124.57496 | 30952 ft | 494 kts | 160° |
| 2026-05-05 14:32 | 6.08950 | 124.59831 | 30937 ft | 494 kts | 160° |
| 2026-05-05 14:33 | 6.02530 | 124.62149 | 30944 ft | 493 kts | 160° |
| 2026-05-05 14:33 | 5.96069 | 124.64481 | 30936 ft | 494 kts | 160° |
| 2026-05-05 14:34 | 5.89602 | 124.66815 | 30938 ft | 494 kts | 160° |
| 2026-05-05 14:34 | 5.83137 | 124.69147 | 30926 ft | 494 kts | 160° |
| 2026-05-05 14:35 | 5.76664 | 124.71481 | 30923 ft | 494 kts | 160° |
| 2026-05-05 14:35 | 5.70196 | 124.73813 | 30917 ft | 494 kts | 159° |
| 2026-05-05 14:36 | 5.63727 | 124.76145 | 30912 ft | 494 kts | 160° |
| 2026-05-05 14:36 | 5.57256 | 124.78477 | 30907 ft | 494 kts | 160° |
| 2026-05-05 14:37 | 5.50786 | 124.80808 | 30907 ft | 494 kts | 160° |
| 2026-05-05 14:37 | 5.44314 | 124.83140 | 30907 ft | 494 kts | 160° |
| 2026-05-05 14:38 | 5.37845 | 124.85469 | 30904 ft | 494 kts | 160° |
| 2026-05-05 14:38 | 5.31376 | 124.87798 | 30904 ft | 494 kts | 160° |
| 2026-05-05 14:39 | 5.24911 | 124.90126 | 30904 ft | 494 kts | 159° |
| 2026-05-05 14:39 | 5.18442 | 124.92454 | 30904 ft | 493 kts | 159° |
| 2026-05-05 14:40 | 5.12025 | 124.94763 | 30907 ft | 493 kts | 159° |
| 2026-05-05 14:40 | 5.05563 | 124.97087 | 30907 ft | 493 kts | 159° |
| 2026-05-05 14:41 | 4.99098 | 124.99412 | 30909 ft | 493 kts | 159° |
| 2026-05-05 14:41 | 4.92640 | 125.01735 | 30907 ft | 493 kts | 159° |
| 2026-05-05 14:42 | 4.86175 | 125.04059 | 30903 ft | 493 kts | 159° |
| 2026-05-05 14:42 | 4.79719 | 125.06379 | 30904 ft | 493 kts | 159° |
| 2026-05-05 14:43 | 4.73264 | 125.08699 | 30904 ft | 493 kts | 159° |
| 2026-05-05 14:43 | 4.66808 | 125.11019 | 30908 ft | 493 kts | 159° |
| 2026-05-05 14:44 | 4.60370 | 125.13331 | 30907 ft | 493 kts | 159° |
| 2026-05-05 14:44 | 4.53919 | 125.15648 | 30907 ft | 492 kts | 159° |
| 2026-05-05 14:45 | 4.47469 | 125.17965 | 30904 ft | 492 kts | 159° |
| 2026-05-05 14:45 | 4.41022 | 125.20279 | 30904 ft | 492 kts | 159° |
| 2026-05-05 14:46 | 4.34574 | 125.22594 | 30904 ft | 492 kts | 159° |
| 2026-05-05 14:46 | 4.28129 | 125.24907 | 30904 ft | 492 kts | 159° |
| 2026-05-05 14:47 | 4.21680 | 125.27221 | 30907 ft | 492 kts | 159° |
| 2026-05-05 14:47 | 4.15232 | 125.29535 | 30907 ft | 492 kts | 159° |
| 2026-05-05 14:48 | 4.08785 | 125.31848 | 30904 ft | 492 kts | 159° |
| 2026-05-05 14:48 | 4.02330 | 125.34163 | 30905 ft | 492 kts | 159° |
| 2026-05-05 14:49 | 3.95862 | 125.36427 | 30904 ft | 493 kts | 160° |
| 2026-05-05 14:49 | 3.89387 | 125.38556 | 30905 ft | 493 kts | 161° |
| 2026-05-05 14:50 | 3.82869 | 125.40685 | 30906 ft | 493 kts | 161° |
| 2026-05-05 14:50 | 3.76353 | 125.42832 | 30907 ft | 493 kts | 161° |
| 2026-05-05 14:51 | 3.69840 | 125.44989 | 30907 ft | 493 kts | 161° |
| 2026-05-05 14:51 | 3.63329 | 125.47148 | 30901 ft | 493 kts | 161° |
| 2026-05-05 14:52 | 3.56812 | 125.49307 | 30904 ft | 493 kts | 161° |
| 2026-05-05 14:52 | 3.50297 | 125.51465 | 30895 ft | 493 kts | 161° |
| 2026-05-05 14:53 | 3.43781 | 125.53623 | 30899 ft | 493 kts | 161° |
| 2026-05-05 14:53 | 3.37265 | 125.55780 | 30900 ft | 493 kts | 161° |
| 2026-05-05 14:54 | 3.30753 | 125.57936 | 30899 ft | 493 kts | 161° |
| 2026-05-05 14:54 | 3.24285 | 125.60076 | 30899 ft | 493 kts | 161° |
| 2026-05-05 14:55 | 3.17774 | 125.62231 | 30899 ft | 493 kts | 161° |
| 2026-05-05 14:55 | 3.11258 | 125.64387 | 30900 ft | 493 kts | 161° |
| 2026-05-05 14:56 | 3.04742 | 125.66543 | 30898 ft | 493 kts | 161° |
| 2026-05-05 14:56 | 2.98226 | 125.68699 | 30899 ft | 493 kts | 161° |
| 2026-05-05 14:57 | 2.91713 | 125.70853 | 30899 ft | 493 kts | 161° |
| 2026-05-05 14:57 | 2.85201 | 125.73007 | 30899 ft | 493 kts | 161° |
| 2026-05-05 14:58 | 2.78687 | 125.75161 | 30899 ft | 493 kts | 161° |
| 2026-05-05 14:58 | 2.72173 | 125.77315 | 30898 ft | 493 kts | 161° |
| 2026-05-05 14:59 | 2.65653 | 125.79470 | 30899 ft | 494 kts | 161° |
| 2026-05-05 14:59 | 2.59132 | 125.81626 | 30899 ft | 494 kts | 161° |
| 2026-05-05 15:00 | 2.53713 | 125.83417 | 30901 ft | 494 kts | 161° |
| 2026-05-05 15:00 | 2.46084 | 125.85939 | 30921 ft | 495 kts | 161° |
| 2026-05-05 15:01 | 2.42809 | 125.87021 | 31091 ft | 496 kts | 161° |
| 2026-05-05 15:01 | 2.39536 | 125.88103 | 31407 ft | 494 kts | 161° |
| 2026-05-05 15:01 | 2.36274 | 125.89181 | 31755 ft | 492 kts | 161° |
| 2026-05-05 15:01 | 2.33032 | 125.90252 | 32068 ft | 490 kts | 161° |
| 2026-05-05 15:02 | 2.29792 | 125.91322 | 32331 ft | 490 kts | 161° |
| 2026-05-05 15:02 | 2.26596 | 125.92378 | 32571 ft | 490 kts | 161° |
| 2026-05-05 15:02 | 2.23365 | 125.93446 | 32806 ft | 489 kts | 161° |
| 2026-05-05 15:02 | 2.20123 | 125.94517 | 32845 ft | 491 kts | 161° |
| 2026-05-05 15:03 | 2.13642 | 125.96658 | 32900 ft | 489 kts | 161° |
| 2026-05-05 15:03 | 2.07208 | 125.98784 | 32897 ft | 486 kts | 161° |
| 2026-05-05 15:04 | 2.00795 | 126.00903 | 32895 ft | 484 kts | 161° |
| 2026-05-05 15:04 | 1.94457 | 126.03171 | 32898 ft | 484 kts | 158° |
| 2026-05-05 15:05 | 1.85068 | 126.06902 | 32899 ft | 485 kts | 158° |
| 2026-05-05 15:06 | 1.78774 | 126.09381 | 32899 ft | 487 kts | 158° |
| 2026-05-05 15:06 | 1.72454 | 126.11836 | 32897 ft | 488 kts | 158° |
| 2026-05-05 15:07 | 1.66130 | 126.14283 | 32898 ft | 488 kts | 158° |
| 2026-05-05 15:07 | 1.59795 | 126.16732 | 32898 ft | 488 kts | 158° |
| 2026-05-05 15:08 | 1.53466 | 126.19181 | 32898 ft | 487 kts | 158° |
| 2026-05-05 15:08 | 1.47147 | 126.21628 | 32895 ft | 487 kts | 158° |
| 2026-05-05 15:09 | 1.40832 | 126.24072 | 32895 ft | 486 kts | 158° |
| 2026-05-05 15:09 | 1.34523 | 126.26515 | 32893 ft | 486 kts | 158° |
| 2026-05-05 15:10 | 1.28219 | 126.28954 | 32897 ft | 486 kts | 158° |
| 2026-05-05 15:10 | 1.21918 | 126.31393 | 32896 ft | 486 kts | 158° |
| 2026-05-05 15:11 | 1.15609 | 126.33835 | 32898 ft | 486 kts | 158° |
| 2026-05-05 15:11 | 1.09296 | 126.36278 | 32896 ft | 487 kts | 158° |
| 2026-05-05 15:12 | 1.03029 | 126.38704 | 32894 ft | 487 kts | 158° |
| 2026-05-05 15:12 | 0.96704 | 126.41151 | 32891 ft | 488 kts | 158° |
| 2026-05-05 15:13 | 0.90376 | 126.43600 | 32888 ft | 488 kts | 158° |
| 2026-05-05 15:13 | 0.84081 | 126.46035 | 32892 ft | 488 kts | 158° |
| 2026-05-05 15:14 | 0.77741 | 126.48488 | 32896 ft | 489 kts | 158° |
| 2026-05-05 15:14 | 0.72424 | 126.50546 | 32891 ft | 489 kts | 158° |
| 2026-05-05 15:15 | 0.66072 | 126.53003 | 32894 ft | 490 kts | 158° |
| 2026-05-05 15:15 | 0.59719 | 126.55461 | 32896 ft | 490 kts | 158° |
| 2026-05-05 15:16 | 0.53364 | 126.57920 | 32893 ft | 490 kts | 158° |
| 2026-05-05 15:16 | 0.47014 | 126.60376 | 32894 ft | 490 kts | 158° |
| 2026-05-05 15:17 | 0.40662 | 126.62834 | 32891 ft | 490 kts | 158° |
| 2026-05-05 15:17 | 0.34310 | 126.65291 | 32894 ft | 490 kts | 158° |
| 2026-05-05 15:18 | 0.27952 | 126.67750 | 32895 ft | 489 kts | 158° |
| 2026-05-05 15:18 | 0.21602 | 126.70207 | 32893 ft | 489 kts | 158° |
| 2026-05-05 15:19 | 0.15252 | 126.72664 | 32890 ft | 489 kts | 158° |
| 2026-05-05 15:19 | 0.08901 | 126.75120 | 32889 ft | 489 kts | 158° |
| 2026-05-05 15:20 | 0.02550 | 126.77577 | 32896 ft | 489 kts | 158° |
| 2026-05-05 15:20 | -0.03804 | 126.80035 | 32896 ft | 490 kts | 158° |
| 2026-05-05 15:21 | -0.10161 | 126.82494 | 32896 ft | 490 kts | 158° |
| 2026-05-05 15:21 | -0.16484 | 126.84940 | 32893 ft | 491 kts | 158° |
| 2026-05-05 15:22 | -0.22854 | 126.87404 | 32893 ft | 491 kts | 158° |
| 2026-05-05 15:22 | -0.29232 | 126.89872 | 32893 ft | 491 kts | 158° |
| 2026-05-05 15:23 | -0.35610 | 126.92339 | 32898 ft | 491 kts | 158° |
| 2026-05-05 15:23 | -0.41988 | 126.94806 | 32881 ft | 492 kts | 158° |
| 2026-05-05 15:24 | -0.48376 | 126.97278 | 32893 ft | 492 kts | 158° |
| 2026-05-05 15:24 | -0.54753 | 126.99745 | 32896 ft | 492 kts | 158° |
| 2026-05-05 15:25 | -0.61130 | 127.02212 | 32894 ft | 491 kts | 158° |
| 2026-05-05 15:25 | -0.67507 | 127.04679 | 32896 ft | 491 kts | 158° |
| 2026-05-05 15:26 | -0.73881 | 127.07145 | 32887 ft | 491 kts | 158° |
| 2026-05-05 15:26 | -0.80256 | 127.09612 | 32897 ft | 491 kts | 158° |
| 2026-05-05 15:27 | -0.86633 | 127.12079 | 32895 ft | 491 kts | 158° |
| 2026-05-05 15:27 | -0.92970 | 127.14531 | 32895 ft | 492 kts | 158° |
| 2026-05-05 15:28 | -0.99350 | 127.17000 | 32879 ft | 492 kts | 158° |
| 2026-05-05 15:28 | -1.05729 | 127.19468 | 32884 ft | 492 kts | 158° |
| 2026-05-05 15:29 | -1.12115 | 127.21940 | 32895 ft | 492 kts | 158° |
| 2026-05-05 15:29 | -1.18502 | 127.24412 | 32894 ft | 492 kts | 158° |
| 2026-05-05 15:30 | -1.24890 | 127.26884 | 32889 ft | 492 kts | 158° |
| 2026-05-05 15:30 | -1.31276 | 127.29356 | 32885 ft | 492 kts | 158° |
| 2026-05-05 15:31 | -1.37661 | 127.31827 | 32887 ft | 492 kts | 158° |
| 2026-05-05 15:31 | -1.44043 | 127.34298 | 32908 ft | 492 kts | 158° |
| 2026-05-05 15:32 | -1.50426 | 127.36768 | 32892 ft | 492 kts | 158° |
| 2026-05-05 15:32 | -1.56815 | 127.39242 | 32893 ft | 492 kts | 158° |
| 2026-05-05 15:33 | -1.63194 | 127.41711 | 32906 ft | 491 kts | 158° |
| 2026-05-05 15:33 | -1.69532 | 127.44165 | 32908 ft | 491 kts | 158° |
| 2026-05-05 15:34 | -1.75905 | 127.46633 | 32893 ft | 491 kts | 158° |
| 2026-05-05 15:34 | -1.82282 | 127.49103 | 32883 ft | 491 kts | 158° |
| 2026-05-05 15:35 | -1.88655 | 127.51571 | 32891 ft | 491 kts | 158° |
| 2026-05-05 15:35 | -1.95021 | 127.54036 | 32900 ft | 490 kts | 158° |
| 2026-05-05 15:36 | -2.01382 | 127.56500 | 32887 ft | 490 kts | 158° |
| 2026-05-05 15:36 | -2.07745 | 127.58965 | 32888 ft | 490 kts | 158° |
| 2026-05-05 15:37 | -2.14103 | 127.61428 | 32884 ft | 490 kts | 158° |
| 2026-05-05 15:37 | -2.20464 | 127.63893 | 32901 ft | 491 kts | 158° |
| 2026-05-05 15:38 | -2.26834 | 127.66361 | 32884 ft | 491 kts | 158° |
| 2026-05-05 15:38 | -2.33215 | 127.68834 | 32886 ft | 492 kts | 158° |
| 2026-05-05 15:39 | -2.39597 | 127.71307 | 32886 ft | 492 kts | 158° |
| 2026-05-05 15:39 | -2.45946 | 127.73768 | 32898 ft | 492 kts | 158° |
| 2026-05-05 15:40 | -2.52336 | 127.76244 | 32887 ft | 493 kts | 158° |
| 2026-05-05 15:40 | -2.58726 | 127.78722 | 32894 ft | 493 kts | 158° |
| 2026-05-05 15:41 | -2.65114 | 127.81199 | 32890 ft | 492 kts | 158° |
| 2026-05-05 15:41 | -2.71501 | 127.83675 | 32890 ft | 492 kts | 158° |
| 2026-05-05 15:42 | -2.77888 | 127.86152 | 32889 ft | 492 kts | 158° |
| 2026-05-05 15:42 | -2.84272 | 127.88628 | 32889 ft | 492 kts | 158° |
| 2026-05-05 15:43 | -2.90661 | 127.91106 | 32896 ft | 492 kts | 158° |
| 2026-05-05 15:43 | -2.97041 | 127.93581 | 32889 ft | 492 kts | 158° |
| 2026-05-05 15:44 | -3.03426 | 127.96059 | 32891 ft | 492 kts | 158° |
| 2026-05-05 15:44 | -3.09816 | 127.98538 | 32896 ft | 492 kts | 158° |
| 2026-05-05 15:45 | -3.16205 | 128.01018 | 32897 ft | 493 kts | 158° |
| 2026-05-05 15:45 | -3.22602 | 128.03501 | 32896 ft | 493 kts | 158° |
| 2026-05-05 15:46 | -3.29007 | 128.05987 | 32892 ft | 494 kts | 158° |
| 2026-05-05 15:46 | -3.35367 | 128.08457 | 32894 ft | 494 kts | 158° |
| 2026-05-05 15:47 | -3.41769 | 128.10943 | 32893 ft | 493 kts | 158° |
| 2026-05-05 15:47 | -3.48170 | 128.13429 | 32884 ft | 493 kts | 158° |
| 2026-05-05 15:48 | -3.54562 | 128.15912 | 32888 ft | 493 kts | 158° |
| 2026-05-05 15:48 | -3.60961 | 128.18395 | 32889 ft | 493 kts | 159° |
| 2026-05-05 15:49 | -3.67487 | 128.20460 | 32892 ft | 492 kts | 163° |
| 2026-05-05 15:49 | -3.74054 | 128.22374 | 32883 ft | 491 kts | 163° |
| 2026-05-05 15:50 | -3.80615 | 128.24296 | 32880 ft | 490 kts | 163° |
| 2026-05-05 15:50 | -3.87152 | 128.26233 | 32882 ft | 490 kts | 163° |
| 2026-05-05 15:51 | -3.93686 | 128.28178 | 32887 ft | 490 kts | 162° |
| 2026-05-05 15:51 | -4.00221 | 128.30125 | 32897 ft | 490 kts | 163° |
| 2026-05-05 15:52 | -4.06755 | 128.32072 | 32895 ft | 490 kts | 162° |
| 2026-05-05 15:52 | -4.13249 | 128.34005 | 32899 ft | 491 kts | 162° |
| 2026-05-05 15:53 | -4.19798 | 128.35955 | 32898 ft | 491 kts | 162° |
| 2026-05-05 15:53 | -4.26347 | 128.37906 | 32894 ft | 491 kts | 162° |
| 2026-05-05 15:54 | -4.32894 | 128.39857 | 32897 ft | 491 kts | 162° |
| 2026-05-05 15:54 | -4.39434 | 128.41806 | 32889 ft | 490 kts | 162° |
| 2026-05-05 15:55 | -4.45979 | 128.43756 | 32891 ft | 490 kts | 162° |
| 2026-05-05 15:55 | -4.52502 | 128.45700 | 32891 ft | 491 kts | 162° |
| 2026-05-05 15:56 | -4.59068 | 128.47658 | 32899 ft | 492 kts | 162° |
| 2026-05-05 15:56 | -4.65616 | 128.49611 | 32901 ft | 492 kts | 162° |
| 2026-05-05 15:57 | -4.72138 | 128.51556 | 32891 ft | 493 kts | 162° |
| 2026-05-05 15:57 | -4.78715 | 128.53518 | 32888 ft | 494 kts | 162° |
| 2026-05-05 15:58 | -4.85307 | 128.55485 | 32892 ft | 494 kts | 163° |
| 2026-05-05 15:58 | -4.91907 | 128.57454 | 32894 ft | 495 kts | 162° |
| 2026-05-05 15:59 | -4.98517 | 128.59427 | 32897 ft | 496 kts | 162° |
| 2026-05-05 15:59 | -5.05132 | 128.61402 | 32892 ft | 496 kts | 162° |
| 2026-05-05 16:00 | -5.11751 | 128.63379 | 32895 ft | 496 kts | 162° |
| 2026-05-05 16:00 | -5.18369 | 128.65356 | 32904 ft | 497 kts | 163° |
| 2026-05-05 16:01 | -5.24993 | 128.67335 | 32901 ft | 496 kts | 163° |
| 2026-05-05 16:01 | -5.31613 | 128.69313 | 32893 ft | 496 kts | 162° |
| 2026-05-05 16:02 | -5.38185 | 128.71277 | 32895 ft | 496 kts | 163° |
| 2026-05-05 16:02 | -5.44802 | 128.73255 | 32892 ft | 496 kts | 163° |
| 2026-05-05 16:03 | -5.51419 | 128.75234 | 32893 ft | 496 kts | 163° |
| 2026-05-05 16:03 | -5.56964 | 128.76892 | 32891 ft | 496 kts | 162° |
| 2026-05-05 16:04 | -5.63572 | 128.78869 | 32898 ft | 496 kts | 163° |
| 2026-05-05 16:04 | -5.70196 | 128.80851 | 32892 ft | 496 kts | 162° |
| 2026-05-05 16:05 | -5.76824 | 128.82835 | 32890 ft | 497 kts | 163° |
| 2026-05-05 16:05 | -5.83445 | 128.84817 | 32891 ft | 497 kts | 163° |
| 2026-05-05 16:06 | -5.90069 | 128.86800 | 32891 ft | 497 kts | 162° |
| 2026-05-05 16:06 | -5.96650 | 128.88771 | 32889 ft | 497 kts | 163° |
| 2026-05-05 16:07 | -6.03271 | 128.90755 | 32892 ft | 497 kts | 163° |
| 2026-05-05 16:07 | -6.09895 | 128.92740 | 32895 ft | 497 kts | 163° |
| 2026-05-05 16:08 | -6.16518 | 128.94725 | 32894 ft | 497 kts | 163° |
| 2026-05-05 16:08 | -6.23137 | 128.96710 | 32898 ft | 496 kts | 163° |
| 2026-05-05 16:09 | -6.29759 | 128.98695 | 32893 ft | 497 kts | 163° |
| 2026-05-05 16:09 | -6.36383 | 129.00682 | 32898 ft | 497 kts | 163° |
| 2026-05-05 16:10 | -6.43011 | 129.02671 | 32897 ft | 497 kts | 163° |
| 2026-05-05 16:10 | -6.49640 | 129.04661 | 32894 ft | 497 kts | 163° |
| 2026-05-05 16:11 | -6.56276 | 129.06653 | 32899 ft | 498 kts | 163° |
| 2026-05-05 16:12 | -6.69573 | 129.10647 | 32894 ft | 499 kts | 163° |
| 2026-05-05 16:13 | -6.86230 | 129.15653 | 32901 ft | 500 kts | 163° |
| 2026-05-05 16:13 | -6.92907 | 129.17661 | 32908 ft | 501 kts | 163° |
| 2026-05-05 16:14 | -7.06280 | 129.21684 | 32903 ft | 501 kts | 163° |
| 2026-05-05 16:15 | -7.19662 | 129.25712 | 32906 ft | 502 kts | 163° |
| 2026-05-05 16:16 | -7.33047 | 129.29743 | 32904 ft | 502 kts | 163° |
| 2026-05-05 16:17 | -7.43092 | 129.32771 | 32901 ft | 503 kts | 164° |
| 2026-05-05 16:18 | -7.53148 | 129.35802 | 32911 ft | 503 kts | 164° |
| 2026-05-05 16:19 | -7.63208 | 129.38837 | 32908 ft | 503 kts | 164° |
| 2026-05-05 16:19 | -7.73275 | 129.41876 | 32908 ft | 504 kts | 164° |
| 2026-05-05 16:20 | -7.86730 | 129.45939 | 32907 ft | 505 kts | 164° |
| 2026-05-05 16:22 | -8.03584 | 129.51033 | 32907 ft | 507 kts | 165° |
| 2026-05-05 16:23 | -8.17126 | 129.55128 | 32909 ft | 509 kts | 164° |
| 2026-05-05 16:23 | -8.27292 | 129.58205 | 32912 ft | 508 kts | 165° |
| 2026-05-05 16:24 | -8.34069 | 129.60257 | 32914 ft | 509 kts | 165° |
| 2026-05-05 16:25 | -8.44211 | 129.63330 | 32912 ft | 508 kts | 164° |
| 2026-05-05 16:25 | -8.54324 | 129.66395 | 32911 ft | 509 kts | 165° |
| 2026-05-05 16:26 | -8.67871 | 129.70661 | 32908 ft | 508 kts | 163° |
| 2026-05-05 16:27 | -8.74613 | 129.72807 | 32928 ft | 508 kts | 164° |
| 2026-05-05 16:27 | -8.81364 | 129.74947 | 32918 ft | 509 kts | 163° |
| 2026-05-05 16:28 | -8.88129 | 129.77088 | 32917 ft | 510 kts | 164° |
| 2026-05-05 16:28 | -8.94902 | 129.79234 | 32912 ft | 510 kts | 163° |
| 2026-05-05 16:29 | -9.01675 | 129.81381 | 32914 ft | 509 kts | 163° |
| 2026-05-05 16:29 | -9.08433 | 129.83525 | 32914 ft | 509 kts | 163° |
| 2026-05-05 16:30 | -9.15185 | 129.85667 | 32912 ft | 508 kts | 164° |
| 2026-05-05 16:30 | -9.21938 | 129.87811 | 32923 ft | 509 kts | 164° |
| 2026-05-05 16:31 | -9.28696 | 129.89956 | 32914 ft | 510 kts | 164° |
| 2026-05-05 16:31 | -9.35474 | 129.92110 | 32922 ft | 510 kts | 163° |
| 2026-05-05 16:32 | -9.42262 | 129.94266 | 32918 ft | 511 kts | 164° |
| 2026-05-05 16:32 | -9.49057 | 129.96390 | 32924 ft | 511 kts | 164° |
| 2026-05-05 16:33 | -9.55851 | 129.98500 | 32919 ft | 510 kts | 164° |
| 2026-05-05 16:33 | -9.62637 | 130.00612 | 32916 ft | 510 kts | 164° |
| 2026-05-05 16:34 | -9.69424 | 130.02730 | 32920 ft | 510 kts | 163° |
| 2026-05-05 16:34 | -9.76208 | 130.04848 | 32916 ft | 510 kts | 164° |
| 2026-05-05 16:35 | -9.82949 | 130.06954 | 32924 ft | 510 kts | 163° |
| 2026-05-05 16:35 | -9.89778 | 130.09089 | 32920 ft | 511 kts | 164° |
| 2026-05-05 16:36 | -9.96566 | 130.11211 | 32924 ft | 510 kts | 164° |
| 2026-05-05 16:36 | -10.03304 | 130.13319 | 32924 ft | 510 kts | 164° |
| 2026-05-05 16:37 | -10.10088 | 130.15442 | 32921 ft | 510 kts | 164° |
| 2026-05-05 16:37 | -10.16866 | 130.17564 | 32925 ft | 509 kts | 164° |
| 2026-05-05 16:38 | -10.23637 | 130.19685 | 32922 ft | 509 kts | 164° |
| 2026-05-05 16:38 | -10.30403 | 130.21805 | 32925 ft | 509 kts | 164° |
| 2026-05-05 16:39 | -10.37163 | 130.23924 | 32925 ft | 508 kts | 164° |
| 2026-05-05 16:39 | -10.43922 | 130.26044 | 32925 ft | 508 kts | 164° |
| 2026-05-05 16:40 | -10.50677 | 130.28164 | 32927 ft | 508 kts | 164° |
| 2026-05-05 16:40 | -10.57439 | 130.30286 | 32926 ft | 509 kts | 164° |
| 2026-05-05 16:41 | -10.64203 | 130.32411 | 32929 ft | 509 kts | 164° |
| 2026-05-05 16:41 | -10.70969 | 130.34537 | 32929 ft | 509 kts | 165° |
| 2026-05-05 16:42 | -10.77740 | 130.36666 | 32929 ft | 509 kts | 165° |
| 2026-05-05 16:42 | -10.84511 | 130.38796 | 32929 ft | 509 kts | 165° |
| 2026-05-05 16:43 | -10.91278 | 130.40948 | 32930 ft | 510 kts | 163° |
| 2026-05-05 16:43 | -10.98013 | 130.43212 | 32929 ft | 510 kts | 163° |
| 2026-05-05 16:44 | -11.04744 | 130.45509 | 32928 ft | 510 kts | 163° |
| 2026-05-05 16:44 | -11.11474 | 130.47792 | 32936 ft | 510 kts | 163° |
| 2026-05-05 16:45 | -11.18217 | 130.50068 | 32933 ft | 510 kts | 163° |
| 2026-05-05 16:45 | -11.24954 | 130.52339 | 32935 ft | 510 kts | 163° |
| 2026-05-05 16:46 | -11.31699 | 130.54615 | 32938 ft | 511 kts | 163° |
| 2026-05-05 16:46 | -11.38441 | 130.56891 | 32936 ft | 511 kts | 163° |
| 2026-05-05 16:47 | -11.45141 | 130.59155 | 32943 ft | 511 kts | 164° |
| 2026-05-05 16:47 | -11.51882 | 130.61434 | 32938 ft | 510 kts | 164° |
| 2026-05-05 16:48 | -11.58619 | 130.63713 | 32938 ft | 510 kts | 164° |
| 2026-05-05 16:48 | -11.64260 | 130.65622 | 32938 ft | 510 kts | 164° |
| 2026-05-05 16:49 | -11.70991 | 130.67900 | 32942 ft | 509 kts | 164° |
| 2026-05-05 16:49 | -11.77667 | 130.70162 | 32946 ft | 509 kts | 164° |
| 2026-05-05 16:50 | -11.84383 | 130.72437 | 32941 ft | 508 kts | 164° |
| 2026-05-05 16:50 | -11.91090 | 130.74711 | 32945 ft | 508 kts | 164° |
| 2026-05-05 16:51 | -11.97793 | 130.76985 | 32947 ft | 508 kts | 164° |
| 2026-05-05 16:51 | -12.04498 | 130.79261 | 32944 ft | 508 kts | 164° |
| 2026-05-05 16:52 | -12.11197 | 130.81536 | 32943 ft | 508 kts | 164° |
| 2026-05-05 16:52 | -12.17905 | 130.83815 | 32941 ft | 508 kts | 164° |
| 2026-05-05 16:53 | -12.24609 | 130.86094 | 32946 ft | 508 kts | 164° |
| 2026-05-05 16:53 | -12.31324 | 130.88378 | 32941 ft | 509 kts | 164° |
| 2026-05-05 16:54 | -12.38054 | 130.90668 | 32945 ft | 510 kts | 164° |
| 2026-05-05 16:54 | -12.44791 | 130.92962 | 32940 ft | 510 kts | 164° |
| 2026-05-05 16:55 | -12.51532 | 130.95259 | 32942 ft | 511 kts | 164° |
| 2026-05-05 16:55 | -12.58278 | 130.97559 | 32946 ft | 511 kts | 164° |
| 2026-05-05 16:56 | -12.65027 | 130.99860 | 32947 ft | 511 kts | 164° |
| 2026-05-05 16:56 | -12.71782 | 131.02166 | 32955 ft | 511 kts | 164° |
| 2026-05-05 16:57 | -12.78534 | 131.04471 | 32953 ft | 512 kts | 165° |
| 2026-05-05 16:57 | -12.85242 | 131.06763 | 32958 ft | 512 kts | 165° |
| 2026-05-05 16:58 | -12.91997 | 131.09072 | 32956 ft | 512 kts | 165° |
| 2026-05-05 16:58 | -12.98756 | 131.11385 | 32954 ft | 512 kts | 165° |
| 2026-05-05 16:59 | -13.05512 | 131.13696 | 32957 ft | 512 kts | 165° |
| 2026-05-05 16:59 | -13.12266 | 131.16008 | 32963 ft | 512 kts | 165° |
| 2026-05-05 17:00 | -13.19026 | 131.18325 | 32964 ft | 512 kts | 165° |
| 2026-05-05 17:00 | -13.25782 | 131.20641 | 32971 ft | 512 kts | 165° |
| 2026-05-05 17:01 | -13.32529 | 131.22956 | 32969 ft | 513 kts | 165° |
| 2026-05-05 17:01 | -13.39302 | 131.25280 | 32969 ft | 513 kts | 165° |
| 2026-05-05 17:02 | -13.46069 | 131.27604 | 32967 ft | 513 kts | 165° |
| 2026-05-05 17:02 | -13.52834 | 131.29929 | 32980 ft | 513 kts | 165° |
| 2026-05-05 17:03 | -13.59616 | 131.32261 | 32966 ft | 514 kts | 165° |
| 2026-05-05 17:03 | -13.66406 | 131.34596 | 32969 ft | 515 kts | 165° |
| 2026-05-05 17:04 | -13.73194 | 131.36933 | 32977 ft | 515 kts | 165° |
| 2026-05-05 17:04 | -13.79988 | 131.39274 | 32976 ft | 515 kts | 165° |
| 2026-05-05 17:05 | -13.86776 | 131.41614 | 32978 ft | 514 kts | 165° |
| 2026-05-05 17:05 | -13.93564 | 131.43955 | 32977 ft | 514 kts | 165° |
| 2026-05-05 17:06 | -14.00342 | 131.46294 | 32973 ft | 514 kts | 165° |
| 2026-05-05 17:06 | -14.07123 | 131.48636 | 32981 ft | 514 kts | 165° |
| 2026-05-05 17:07 | -14.13916 | 131.50983 | 32984 ft | 515 kts | 165° |
| 2026-05-05 17:07 | -14.20721 | 131.53335 | 32977 ft | 516 kts | 165° |
| 2026-05-05 17:08 | -14.27530 | 131.55692 | 32992 ft | 516 kts | 165° |
| 2026-05-05 17:08 | -14.34350 | 131.58053 | 32989 ft | 517 kts | 166° |
| 2026-05-05 17:09 | -14.41171 | 131.60416 | 32983 ft | 517 kts | 166° |
| 2026-05-05 17:09 | -14.47991 | 131.62780 | 32987 ft | 517 kts | 166° |
| 2026-05-05 17:10 | -14.54767 | 131.65131 | 33004 ft | 517 kts | 166° |
| 2026-05-05 17:10 | -14.61576 | 131.67494 | 32990 ft | 516 kts | 166° |
| 2026-05-05 17:11 | -14.68387 | 131.69860 | 33004 ft | 516 kts | 166° |
| 2026-05-05 17:11 | -14.75197 | 131.72227 | 32996 ft | 516 kts | 166° |
| 2026-05-05 17:12 | -14.82003 | 131.74595 | 32998 ft | 516 kts | 166° |
| 2026-05-05 17:12 | -14.88803 | 131.76960 | 32999 ft | 515 kts | 166° |
| 2026-05-05 17:13 | -14.95601 | 131.79328 | 33004 ft | 515 kts | 166° |
| 2026-05-05 17:13 | -15.02389 | 131.81693 | 33015 ft | 515 kts | 166° |
| 2026-05-05 17:14 | -15.09178 | 131.84061 | 33012 ft | 515 kts | 166° |
| 2026-05-05 17:14 | -15.15969 | 131.86431 | 33009 ft | 515 kts | 166° |
| 2026-05-05 17:15 | -15.22755 | 131.88801 | 33014 ft | 515 kts | 166° |
| 2026-05-05 17:15 | -15.29543 | 131.91173 | 33022 ft | 515 kts | 167° |
| 2026-05-05 17:16 | -15.36336 | 131.93548 | 33015 ft | 515 kts | 167° |
| 2026-05-05 17:16 | -15.43136 | 131.95928 | 33019 ft | 515 kts | 167° |
| 2026-05-05 17:17 | -15.49927 | 131.98306 | 33019 ft | 515 kts | 167° |
| 2026-05-05 17:17 | -15.56735 | 132.00619 | 33023 ft | 515 kts | 168° |
| 2026-05-05 17:18 | -15.63562 | 132.02878 | 33021 ft | 515 kts | 168° |
| 2026-05-05 17:18 | -15.70401 | 132.05148 | 33021 ft | 516 kts | 168° |
| 2026-05-05 17:19 | -15.77236 | 132.07432 | 33027 ft | 517 kts | 168° |
| 2026-05-05 17:19 | -15.84082 | 132.09726 | 33020 ft | 517 kts | 168° |
| 2026-05-05 17:20 | -15.90930 | 132.12022 | 33026 ft | 517 kts | 168° |
| 2026-05-05 17:20 | -15.97775 | 132.14318 | 33024 ft | 517 kts | 168° |
| 2026-05-05 17:21 | -16.04628 | 132.16619 | 33041 ft | 518 kts | 168° |
| 2026-05-05 17:22 | -16.14882 | 132.20062 | 33029 ft | 518 kts | 168° |
| 2026-05-05 17:22 | -16.21743 | 132.22369 | 33041 ft | 518 kts | 168° |
| 2026-05-05 17:23 | -16.28610 | 132.24680 | 33041 ft | 518 kts | 168° |
| 2026-05-05 17:23 | -16.35471 | 132.26990 | 33035 ft | 518 kts | 168° |
| 2026-05-05 17:24 | -16.42335 | 132.29303 | 33037 ft | 518 kts | 168° |
| 2026-05-05 17:24 | -16.49200 | 132.31618 | 33066 ft | 518 kts | 168° |
| 2026-05-05 17:25 | -16.56069 | 132.33936 | 33038 ft | 519 kts | 168° |
| 2026-05-05 17:25 | -16.62930 | 132.36254 | 33052 ft | 519 kts | 168° |
| 2026-05-05 17:26 | -16.69801 | 132.38576 | 33043 ft | 519 kts | 168° |
| 2026-05-05 17:26 | -16.76668 | 132.40899 | 33053 ft | 519 kts | 168° |
| 2026-05-05 17:27 | -16.83545 | 132.43227 | 33055 ft | 519 kts | 168° |
| 2026-05-05 17:27 | -16.90366 | 132.45538 | 33054 ft | 519 kts | 168° |
| 2026-05-05 17:28 | -16.97245 | 132.47870 | 33070 ft | 519 kts | 168° |
| 2026-05-05 17:28 | -17.04126 | 132.50205 | 33057 ft | 520 kts | 168° |
| 2026-05-05 17:29 | -17.11008 | 132.52542 | 33060 ft | 520 kts | 168° |
| 2026-05-05 17:29 | -17.17883 | 132.54901 | 33059 ft | 521 kts | 168° |
| 2026-05-05 17:30 | -17.24760 | 132.57320 | 33066 ft | 522 kts | 168° |
| 2026-05-05 17:30 | -17.31638 | 132.59750 | 33067 ft | 522 kts | 168° |
| 2026-05-05 17:31 | -17.38523 | 132.62176 | 33059 ft | 522 kts | 168° |
| 2026-05-05 17:31 | -17.45411 | 132.64599 | 33079 ft | 522 kts | 168° |
| 2026-05-05 17:32 | -17.52306 | 132.67026 | 33073 ft | 523 kts | 168° |
| 2026-05-05 17:32 | -17.59210 | 132.69458 | 33067 ft | 523 kts | 168° |
| 2026-05-05 17:33 | -17.66112 | 132.71893 | 33090 ft | 523 kts | 168° |
| 2026-05-05 17:33 | -17.73010 | 132.74327 | 33077 ft | 523 kts | 168° |
| 2026-05-05 17:34 | -17.79865 | 132.76748 | 33077 ft | 523 kts | 168° |
| 2026-05-05 17:34 | -17.86771 | 132.79190 | 33072 ft | 523 kts | 168° |
| 2026-05-05 17:35 | -17.93670 | 132.81631 | 33081 ft | 524 kts | 169° |
| 2026-05-05 17:35 | -18.00575 | 132.84076 | 33077 ft | 524 kts | 168° |
| 2026-05-05 17:36 | -18.07481 | 132.86523 | 33077 ft | 524 kts | 169° |
| 2026-05-05 17:36 | -18.13263 | 132.88574 | 33103 ft | 524 kts | 169° |
| 2026-05-05 17:37 | -18.20128 | 132.91010 | 33085 ft | 524 kts | 169° |
| 2026-05-05 17:37 | -18.27037 | 132.93464 | 33079 ft | 524 kts | 169° |
| 2026-05-05 17:38 | -18.33953 | 132.95924 | 33088 ft | 524 kts | 169° |
| 2026-05-05 17:38 | -18.40869 | 132.98384 | 33079 ft | 525 kts | 169° |
| 2026-05-05 17:39 | -18.47784 | 133.00847 | 33086 ft | 525 kts | 169° |
| 2026-05-05 17:39 | -18.54699 | 133.03312 | 33082 ft | 524 kts | 169° |
| 2026-05-05 17:40 | -18.61609 | 133.05778 | 33096 ft | 524 kts | 169° |
| 2026-05-05 17:40 | -18.68530 | 133.08249 | 33092 ft | 524 kts | 169° |
| 2026-05-05 17:41 | -18.75436 | 133.10717 | 33094 ft | 524 kts | 169° |
| 2026-05-05 17:41 | -18.82349 | 133.13189 | 33112 ft | 525 kts | 169° |
| 2026-05-05 17:42 | -18.89265 | 133.15664 | 33088 ft | 525 kts | 169° |
| 2026-05-05 17:42 | -18.96181 | 133.18142 | 33094 ft | 525 kts | 169° |
| 2026-05-05 17:43 | -19.03100 | 133.20623 | 33093 ft | 525 kts | 169° |
| 2026-05-05 17:43 | -19.09980 | 133.23093 | 33101 ft | 526 kts | 169° |
| 2026-05-05 17:44 | -19.16910 | 133.25582 | 33093 ft | 526 kts | 169° |
| 2026-05-05 17:44 | -19.23831 | 133.28071 | 33102 ft | 525 kts | 169° |
| 2026-05-05 17:45 | -19.30756 | 133.30563 | 33116 ft | 526 kts | 169° |
| 2026-05-05 17:45 | -19.37682 | 133.33058 | 33106 ft | 526 kts | 169° |
| 2026-05-05 17:46 | -19.44608 | 133.35555 | 33110 ft | 526 kts | 169° |
| 2026-05-05 17:46 | -19.51538 | 133.38056 | 33126 ft | 526 kts | 169° |
| 2026-05-05 17:47 | -19.58474 | 133.40560 | 33111 ft | 527 kts | 169° |
| 2026-05-05 17:47 | -19.65408 | 133.43067 | 33102 ft | 526 kts | 169° |
| 2026-05-05 17:48 | -19.72295 | 133.45560 | 33137 ft | 526 kts | 169° |
| 2026-05-05 17:48 | -19.79266 | 133.48084 | 33124 ft | 526 kts | 169° |
| 2026-05-05 17:49 | -19.86151 | 133.50580 | 33119 ft | 526 kts | 169° |
| 2026-05-05 17:49 | -19.93076 | 133.53093 | 33144 ft | 526 kts | 170° |
| 2026-05-05 17:50 | -20.00008 | 133.55610 | 33123 ft | 526 kts | 170° |
| 2026-05-05 17:50 | -20.06943 | 133.58131 | 33131 ft | 526 kts | 170° |
| 2026-05-05 17:51 | -20.13875 | 133.60653 | 33128 ft | 526 kts | 170° |
| 2026-05-05 17:51 | -20.20819 | 133.63182 | 33121 ft | 527 kts | 170° |
| 2026-05-05 17:52 | -20.27759 | 133.65712 | 33133 ft | 527 kts | 170° |
| 2026-05-05 17:52 | -20.34700 | 133.68245 | 33139 ft | 527 kts | 170° |
| 2026-05-05 17:53 | -20.41599 | 133.70764 | 33139 ft | 528 kts | 170° |
| 2026-05-05 17:53 | -20.48557 | 133.73308 | 33137 ft | 528 kts | 170° |
| 2026-05-05 17:54 | -20.55512 | 133.75853 | 33144 ft | 528 kts | 170° |
| 2026-05-05 17:54 | -20.62472 | 133.78402 | 33156 ft | 529 kts | 170° |
| 2026-05-05 17:55 | -20.69432 | 133.80954 | 33153 ft | 529 kts | 170° |
| 2026-05-05 17:55 | -20.76406 | 133.83514 | 33148 ft | 529 kts | 170° |
| 2026-05-05 17:56 | -20.83370 | 133.86073 | 33150 ft | 529 kts | 170° |
| 2026-05-05 17:56 | -20.90338 | 133.88635 | 33151 ft | 529 kts | 170° |
| 2026-05-05 17:57 | -20.97302 | 133.91198 | 33153 ft | 529 kts | 170° |
| 2026-05-05 17:57 | -21.04267 | 133.93765 | 33166 ft | 529 kts | 170° |
| 2026-05-05 17:58 | -21.11222 | 133.96330 | 33159 ft | 529 kts | 170° |
| 2026-05-05 17:58 | -21.18148 | 133.98887 | 33160 ft | 529 kts | 170° |
| 2026-05-05 17:59 | -21.25115 | 134.01462 | 33186 ft | 530 kts | 170° |
| 2026-05-05 17:59 | -21.32087 | 134.04041 | 33161 ft | 530 kts | 170° |
| 2026-05-05 18:00 | -21.39016 | 134.06781 | 33171 ft | 536 kts | 165° |
| 2026-05-05 18:00 | -21.45858 | 134.10010 | 33200 ft | 537 kts | 164° |
| 2026-05-05 18:01 | -21.52681 | 134.13291 | 33192 ft | 538 kts | 165° |
| 2026-05-05 18:01 | -21.59523 | 134.16557 | 33181 ft | 537 kts | 165° |
| 2026-05-05 18:02 | -21.66358 | 134.19796 | 33201 ft | 537 kts | 165° |
| 2026-05-05 18:02 | -21.73191 | 134.23030 | 33196 ft | 537 kts | 165° |
| 2026-05-05 18:03 | -21.80023 | 134.26269 | 33200 ft | 536 kts | 165° |
| 2026-05-05 18:03 | -21.86856 | 134.29513 | 33221 ft | 537 kts | 165° |
| 2026-05-05 18:04 | -21.93691 | 134.32762 | 33192 ft | 537 kts | 165° |
| 2026-05-05 18:04 | -22.00515 | 134.36011 | 33192 ft | 536 kts | 165° |
| 2026-05-05 18:05 | -22.07337 | 134.39261 | 33220 ft | 536 kts | 165° |
| 2026-05-05 18:05 | -22.14157 | 134.42514 | 33189 ft | 536 kts | 165° |
| 2026-05-05 18:06 | -22.20975 | 134.45769 | 33202 ft | 535 kts | 165° |
| 2026-05-05 18:06 | -22.27733 | 134.48999 | 33229 ft | 535 kts | 165° |
| 2026-05-05 18:07 | -22.34546 | 134.52258 | 33215 ft | 535 kts | 165° |
| 2026-05-05 18:07 | -22.41354 | 134.55519 | 33215 ft | 535 kts | 165° |
| 2026-05-05 18:08 | -22.48172 | 134.58788 | 33229 ft | 536 kts | 165° |
| 2026-05-05 18:08 | -22.54985 | 134.62058 | 33215 ft | 535 kts | 165° |
| 2026-05-05 18:09 | -22.61784 | 134.65326 | 33212 ft | 535 kts | 165° |
| 2026-05-05 18:09 | -22.68594 | 134.68601 | 33220 ft | 535 kts | 165° |
| 2026-05-05 18:10 | -22.75392 | 134.71876 | 33213 ft | 534 kts | 165° |
| 2026-05-05 18:10 | -22.82180 | 134.75148 | 33210 ft | 534 kts | 165° |
| 2026-05-05 18:11 | -22.88969 | 134.78424 | 33216 ft | 534 kts | 165° |
| 2026-05-05 18:11 | -22.95706 | 134.81679 | 33219 ft | 534 kts | 165° |
| 2026-05-05 18:12 | -23.02492 | 134.84961 | 33226 ft | 534 kts | 165° |
| 2026-05-05 18:12 | -23.09283 | 134.88248 | 33224 ft | 535 kts | 165° |
| 2026-05-05 18:13 | -23.16073 | 134.91540 | 33213 ft | 535 kts | 165° |
| 2026-05-05 18:13 | -23.22863 | 134.94837 | 33213 ft | 534 kts | 165° |
| 2026-05-05 18:14 | -23.29644 | 134.98132 | 33223 ft | 533 kts | 164° |
| 2026-05-05 18:14 | -23.36410 | 135.01423 | 33209 ft | 532 kts | 164° |
| 2026-05-05 18:15 | -23.43165 | 135.04713 | 33224 ft | 532 kts | 164° |
| 2026-05-05 18:15 | -23.49915 | 135.08003 | 33240 ft | 531 kts | 164° |
| 2026-05-05 18:16 | -23.56657 | 135.11293 | 33218 ft | 531 kts | 164° |
| 2026-05-05 18:16 | -23.63390 | 135.14583 | 33227 ft | 530 kts | 164° |
| 2026-05-05 18:17 | -23.70128 | 135.17878 | 33232 ft | 531 kts | 164° |
| 2026-05-05 18:17 | -23.73512 | 135.19533 | 33364 ft | 535 kts | 164° |
| 2026-05-05 18:17 | -23.76904 | 135.21193 | 33805 ft | 532 kts | 164° |
| 2026-05-05 18:17 | -23.80272 | 135.22848 | 34269 ft | 530 kts | 165° |
| 2026-05-05 18:18 | -23.83630 | 135.24497 | 34534 ft | 530 kts | 165° |
| 2026-05-05 18:18 | -23.86999 | 135.26150 | 34772 ft | 530 kts | 165° |
| 2026-05-05 18:18 | -23.90364 | 135.27801 | 35031 ft | 530 kts | 165° |
| 2026-05-05 18:18 | -23.93687 | 135.29432 | 35165 ft | 532 kts | 165° |
| 2026-05-05 18:19 | -23.97072 | 135.31095 | 35199 ft | 533 kts | 165° |
| 2026-05-05 18:19 | -24.03816 | 135.34417 | 35239 ft | 530 kts | 164° |
| 2026-05-05 18:20 | -24.10456 | 135.37867 | 35215 ft | 528 kts | 161° |
| 2026-05-05 18:20 | -24.16953 | 135.41558 | 35225 ft | 525 kts | 160° |
| 2026-05-05 18:21 | -24.23418 | 135.45249 | 35223 ft | 523 kts | 161° |
| 2026-05-05 18:21 | -24.29900 | 135.48895 | 35231 ft | 524 kts | 161° |
| 2026-05-05 18:22 | -24.36416 | 135.52536 | 35228 ft | 527 kts | 161° |
| 2026-05-05 18:22 | -24.42952 | 135.56190 | 35229 ft | 528 kts | 161° |
| 2026-05-05 18:23 | -24.49502 | 135.59860 | 35231 ft | 529 kts | 160° |
| 2026-05-05 18:23 | -24.56064 | 135.63545 | 35223 ft | 529 kts | 160° |
| 2026-05-05 18:24 | -24.62618 | 135.67230 | 35240 ft | 529 kts | 160° |
| 2026-05-05 18:24 | -24.69163 | 135.70914 | 35226 ft | 528 kts | 160° |
| 2026-05-05 18:25 | -24.75689 | 135.74592 | 35225 ft | 526 kts | 160° |
| 2026-05-05 18:25 | -24.82194 | 135.78261 | 35221 ft | 525 kts | 160° |
| 2026-05-05 18:26 | -24.88689 | 135.81928 | 35254 ft | 524 kts | 160° |
| 2026-05-05 18:26 | -24.95169 | 135.85592 | 35222 ft | 523 kts | 160° |
| 2026-05-05 18:27 | -25.00586 | 135.88657 | 35223 ft | 522 kts | 160° |
| 2026-05-05 18:27 | -25.07034 | 135.92311 | 35218 ft | 521 kts | 160° |
| 2026-05-05 18:28 | -25.16697 | 135.97794 | 35250 ft | 520 kts | 159° |
| 2026-05-05 18:28 | -25.23077 | 136.01420 | 35226 ft | 520 kts | 159° |
| 2026-05-05 18:29 | -25.29551 | 136.05103 | 35218 ft | 519 kts | 159° |
| 2026-05-05 18:29 | -25.35963 | 136.08756 | 35219 ft | 518 kts | 159° |
| 2026-05-05 18:30 | -25.42321 | 136.12383 | 35223 ft | 517 kts | 159° |
| 2026-05-05 18:30 | -25.48718 | 136.16035 | 35224 ft | 517 kts | 159° |
| 2026-05-05 18:31 | -25.55110 | 136.19689 | 35225 ft | 517 kts | 159° |
| 2026-05-05 18:31 | -25.61508 | 136.23351 | 35223 ft | 518 kts | 159° |
| 2026-05-05 18:32 | -25.67910 | 136.27020 | 35222 ft | 518 kts | 159° |
| 2026-05-05 18:32 | -25.74316 | 136.30696 | 35241 ft | 518 kts | 158° |
| 2026-05-05 18:33 | -25.80720 | 136.34375 | 35221 ft | 518 kts | 158° |
| 2026-05-05 18:33 | -25.87110 | 136.38052 | 35225 ft | 517 kts | 158° |
| 2026-05-05 18:34 | -25.93490 | 136.41727 | 35216 ft | 516 kts | 158° |
| 2026-05-05 18:34 | -25.99855 | 136.45397 | 35219 ft | 515 kts | 158° |
| 2026-05-05 18:35 | -26.06210 | 136.49066 | 35227 ft | 514 kts | 158° |
| 2026-05-05 18:35 | -26.12545 | 136.52728 | 35216 ft | 513 kts | 158° |
| 2026-05-05 18:36 | -26.18868 | 136.56388 | 35222 ft | 512 kts | 158° |
| 2026-05-05 18:36 | -26.25179 | 136.60045 | 35219 ft | 511 kts | 158° |
| 2026-05-05 18:37 | -26.31486 | 136.63703 | 35244 ft | 510 kts | 157° |
| 2026-05-05 18:37 | -26.37776 | 136.67358 | 35222 ft | 510 kts | 157° |
| 2026-05-05 18:38 | -26.44059 | 136.71012 | 35220 ft | 508 kts | 157° |
| 2026-05-05 18:38 | -26.50326 | 136.74661 | 35218 ft | 508 kts | 157° |
| 2026-05-05 18:39 | -26.56586 | 136.78311 | 35219 ft | 507 kts | 157° |
| 2026-05-05 18:39 | -26.62840 | 136.81962 | 35227 ft | 507 kts | 156° |
| 2026-05-05 18:40 | -26.69093 | 136.85618 | 35218 ft | 507 kts | 156° |
| 2026-05-05 18:40 | -26.75346 | 136.89277 | 35219 ft | 507 kts | 156° |
| 2026-05-05 18:41 | -26.81598 | 136.92940 | 35224 ft | 507 kts | 156° |
| 2026-05-05 18:41 | -26.87850 | 136.96609 | 35234 ft | 507 kts | 156° |
| 2026-05-05 18:42 | -26.94104 | 137.00283 | 35227 ft | 508 kts | 156° |
| 2026-05-05 18:42 | -27.00325 | 137.03942 | 35221 ft | 509 kts | 156° |
| 2026-05-05 18:43 | -27.06639 | 137.07660 | 35222 ft | 509 kts | 156° |
| 2026-05-05 18:43 | -27.12913 | 137.11360 | 35222 ft | 510 kts | 156° |
| 2026-05-05 18:44 | -27.19189 | 137.15067 | 35230 ft | 510 kts | 156° |
| 2026-05-05 18:44 | -27.25430 | 137.18757 | 35219 ft | 511 kts | 156° |
| 2026-05-05 18:45 | -27.31719 | 137.22480 | 35223 ft | 511 kts | 156° |
| 2026-05-05 18:45 | -27.38003 | 137.26205 | 35223 ft | 511 kts | 156° |
| 2026-05-05 18:46 | -27.44289 | 137.29938 | 35221 ft | 511 kts | 156° |
| 2026-05-05 18:46 | -27.50574 | 137.33674 | 35223 ft | 511 kts | 156° |
| 2026-05-05 18:47 | -27.56748 | 137.37683 | 35220 ft | 513 kts | 153° |
| 2026-05-05 18:47 | -27.62837 | 137.41883 | 35220 ft | 513 kts | 153° |
| 2026-05-05 18:48 | -27.68927 | 137.46061 | 35217 ft | 512 kts | 153° |
| 2026-05-05 18:48 | -27.75046 | 137.50207 | 35240 ft | 512 kts | 153° |
| 2026-05-05 18:49 | -27.81165 | 137.54337 | 35224 ft | 513 kts | 153° |
| 2026-05-05 18:49 | -27.87294 | 137.58479 | 35217 ft | 513 kts | 153° |
| 2026-05-05 18:50 | -27.93420 | 137.62629 | 35216 ft | 513 kts | 153° |
| 2026-05-05 18:50 | -27.99542 | 137.66783 | 35221 ft | 513 kts | 153° |
| 2026-05-05 18:51 | -28.05620 | 137.70912 | 35236 ft | 514 kts | 154° |
| 2026-05-05 18:51 | -28.11755 | 137.75086 | 35220 ft | 514 kts | 154° |
| 2026-05-05 18:52 | -28.17890 | 137.79265 | 35217 ft | 514 kts | 153° |
| 2026-05-05 18:52 | -28.24019 | 137.83447 | 35221 ft | 514 kts | 154° |
| 2026-05-05 18:53 | -28.30147 | 137.87633 | 35222 ft | 514 kts | 153° |
| 2026-05-05 18:53 | -28.36274 | 137.91823 | 35215 ft | 514 kts | 153° |
| 2026-05-05 18:54 | -28.42402 | 137.96021 | 35225 ft | 514 kts | 153° |
| 2026-05-05 18:54 | -28.48524 | 138.00220 | 35220 ft | 514 kts | 153° |
| 2026-05-05 18:55 | -28.54647 | 138.04426 | 35218 ft | 514 kts | 154° |
| 2026-05-05 18:55 | -28.60774 | 138.08640 | 35217 ft | 515 kts | 153° |
| 2026-05-05 18:56 | -28.66860 | 138.12831 | 35221 ft | 515 kts | 153° |
| 2026-05-05 18:56 | -28.72985 | 138.17055 | 35226 ft | 515 kts | 153° |
| 2026-05-05 18:57 | -28.79108 | 138.21284 | 35220 ft | 514 kts | 153° |
| 2026-05-05 18:57 | -28.85227 | 138.25516 | 35220 ft | 514 kts | 154° |
| 2026-05-05 18:58 | -28.91344 | 138.29753 | 35224 ft | 514 kts | 153° |
| 2026-05-05 18:58 | -28.97463 | 138.33996 | 35232 ft | 514 kts | 153° |
| 2026-05-05 18:59 | -29.03578 | 138.38243 | 35226 ft | 515 kts | 153° |
| 2026-05-05 18:59 | -29.09692 | 138.42496 | 35226 ft | 514 kts | 153° |
| 2026-05-05 19:00 | -29.15808 | 138.46756 | 35226 ft | 515 kts | 153° |
| 2026-05-05 19:00 | -29.21924 | 138.51022 | 35250 ft | 515 kts | 153° |
| 2026-05-05 19:01 | -29.28042 | 138.55295 | 35236 ft | 515 kts | 153° |
| 2026-05-05 19:01 | -29.34135 | 138.59647 | 35234 ft | 517 kts | 152° |
| 2026-05-05 19:02 | -29.40157 | 138.64164 | 35229 ft | 517 kts | 151° |
| 2026-05-05 19:02 | -29.46166 | 138.68704 | 35234 ft | 517 kts | 152° |
| 2026-05-05 19:03 | -29.52187 | 138.73227 | 35253 ft | 517 kts | 152° |
| 2026-05-05 19:03 | -29.58203 | 138.77734 | 35242 ft | 517 kts | 152° |
| 2026-05-05 19:04 | -29.64224 | 138.82248 | 35232 ft | 516 kts | 152° |
| 2026-05-05 19:04 | -29.70235 | 138.86761 | 35237 ft | 516 kts | 152° |
| 2026-05-05 19:05 | -29.76236 | 138.91276 | 35244 ft | 516 kts | 152° |
| 2026-05-05 19:05 | -29.82239 | 138.95798 | 35264 ft | 515 kts | 152° |
| 2026-05-05 19:06 | -29.88236 | 139.00323 | 35251 ft | 515 kts | 152° |
| 2026-05-05 19:06 | -29.94226 | 139.04849 | 35242 ft | 515 kts | 152° |
| 2026-05-05 19:07 | -29.99202 | 139.08614 | 35254 ft | 514 kts | 152° |
| 2026-05-05 19:07 | -30.06187 | 139.13907 | 35250 ft | 514 kts | 152° |
| 2026-05-05 19:08 | -30.12159 | 139.18439 | 35249 ft | 514 kts | 152° |
| 2026-05-05 19:08 | -30.18127 | 139.22975 | 35253 ft | 513 kts | 152° |
| 2026-05-05 19:09 | -30.24090 | 139.27514 | 35252 ft | 513 kts | 152° |
| 2026-05-05 19:09 | -30.30023 | 139.32038 | 35249 ft | 512 kts | 152° |
| 2026-05-05 19:10 | -30.35965 | 139.36573 | 35255 ft | 512 kts | 152° |
| 2026-05-05 19:10 | -30.41870 | 139.41086 | 35256 ft | 512 kts | 152° |
| 2026-05-05 19:11 | -30.47806 | 139.45632 | 35258 ft | 511 kts | 151° |
| 2026-05-05 19:11 | -30.53734 | 139.50178 | 35249 ft | 510 kts | 151° |
| 2026-05-05 19:12 | -30.59648 | 139.54721 | 35251 ft | 510 kts | 151° |
| 2026-05-05 19:12 | -30.64566 | 139.58502 | 35245 ft | 509 kts | 151° |
| 2026-05-05 19:13 | -30.70461 | 139.63041 | 35246 ft | 509 kts | 151° |
| 2026-05-05 19:13 | -30.76360 | 139.67590 | 35256 ft | 508 kts | 151° |
| 2026-05-05 19:14 | -30.82250 | 139.72139 | 35233 ft | 508 kts | 151° |
| 2026-05-05 19:14 | -30.88132 | 139.76689 | 35253 ft | 507 kts | 150° |
| 2026-05-05 19:15 | -30.94003 | 139.81237 | 35247 ft | 507 kts | 150° |
| 2026-05-05 19:15 | -30.99869 | 139.85788 | 35245 ft | 506 kts | 150° |
| 2026-05-05 19:16 | -31.05733 | 139.90344 | 35259 ft | 506 kts | 150° |
| 2026-05-05 19:16 | -31.11585 | 139.94898 | 35246 ft | 505 kts | 150° |
| 2026-05-05 19:17 | -31.17429 | 139.99452 | 35255 ft | 504 kts | 150° |
| 2026-05-05 19:17 | -31.23260 | 140.04004 | 35251 ft | 504 kts | 150° |
| 2026-05-05 19:18 | -31.29084 | 140.08556 | 35247 ft | 503 kts | 150° |
| 2026-05-05 19:18 | -31.34896 | 140.13106 | 35249 ft | 503 kts | 150° |
| 2026-05-05 19:19 | -31.40711 | 140.17665 | 35252 ft | 503 kts | 150° |
| 2026-05-05 19:19 | -31.46519 | 140.22226 | 35252 ft | 503 kts | 150° |
| 2026-05-05 19:20 | -31.52334 | 140.26799 | 35254 ft | 503 kts | 150° |
| 2026-05-05 19:20 | -31.58109 | 140.31347 | 35255 ft | 504 kts | 150° |
| 2026-05-05 19:21 | -31.63923 | 140.35933 | 35275 ft | 504 kts | 149° |
| 2026-05-05 19:21 | -31.69739 | 140.40528 | 35259 ft | 504 kts | 149° |
| 2026-05-05 19:22 | -31.75542 | 140.45120 | 35258 ft | 503 kts | 149° |
| 2026-05-05 19:22 | -31.81339 | 140.49714 | 35256 ft | 502 kts | 149° |
| 2026-05-05 19:23 | -31.87127 | 140.54309 | 35259 ft | 501 kts | 149° |
| 2026-05-05 19:23 | -31.92904 | 140.58901 | 35258 ft | 501 kts | 149° |
| 2026-05-05 19:24 | -31.98670 | 140.63492 | 35260 ft | 500 kts | 149° |
| 2026-05-05 19:24 | -32.04432 | 140.68085 | 35264 ft | 500 kts | 148° |
| 2026-05-05 19:25 | -32.10156 | 140.72657 | 35261 ft | 499 kts | 148° |
| 2026-05-05 19:25 | -32.15905 | 140.77256 | 35262 ft | 499 kts | 148° |
| 2026-05-05 19:26 | -32.21656 | 140.81863 | 35260 ft | 499 kts | 148° |
| 2026-05-05 19:26 | -32.27403 | 140.86474 | 35266 ft | 499 kts | 148° |
| 2026-05-05 19:27 | -32.33149 | 140.91092 | 35267 ft | 500 kts | 148° |
| 2026-05-05 19:27 | -32.38895 | 140.95717 | 35264 ft | 500 kts | 148° |
| 2026-05-05 19:28 | -32.44636 | 141.00347 | 35252 ft | 499 kts | 148° |
| 2026-05-05 19:28 | -32.50368 | 141.05001 | 35260 ft | 500 kts | 147° |
| 2026-05-05 19:29 | -32.56015 | 141.09810 | 35270 ft | 500 kts | 146° |
| 2026-05-05 19:29 | -32.61636 | 141.14670 | 35258 ft | 500 kts | 145° |
| 2026-05-05 19:30 | -32.67266 | 141.19523 | 35260 ft | 500 kts | 146° |
| 2026-05-05 19:30 | -32.72902 | 141.24365 | 35252 ft | 500 kts | 146° |
| 2026-05-05 19:31 | -32.78499 | 141.29176 | 35259 ft | 500 kts | 146° |
| 2026-05-05 19:31 | -32.84129 | 141.34023 | 35256 ft | 500 kts | 146° |
| 2026-05-05 19:32 | -32.89764 | 141.38883 | 35248 ft | 500 kts | 145° |
| 2026-05-05 19:32 | -32.95393 | 141.43746 | 35251 ft | 500 kts | 145° |
| 2026-05-05 19:33 | -33.01024 | 141.48619 | 35252 ft | 500 kts | 145° |
| 2026-05-05 19:33 | -33.06648 | 141.53494 | 35252 ft | 500 kts | 145° |
| 2026-05-05 19:34 | -33.12278 | 141.58381 | 35251 ft | 500 kts | 145° |
| 2026-05-05 19:35 | -33.20716 | 141.65722 | 35251 ft | 501 kts | 145° |
| 2026-05-05 19:35 | -33.26348 | 141.70632 | 35250 ft | 501 kts | 145° |
| 2026-05-05 19:36 | -33.31972 | 141.75542 | 35251 ft | 501 kts | 145° |
| 2026-05-05 19:36 | -33.37597 | 141.80461 | 35251 ft | 501 kts | 145° |
| 2026-05-05 19:37 | -33.43219 | 141.85386 | 35253 ft | 501 kts | 145° |
| 2026-05-05 19:37 | -33.48839 | 141.90317 | 35252 ft | 501 kts | 145° |
| 2026-05-05 19:38 | -33.54459 | 141.95257 | 35247 ft | 501 kts | 145° |
| 2026-05-05 19:38 | -33.60083 | 142.00208 | 35254 ft | 501 kts | 145° |
| 2026-05-05 19:39 | -33.65702 | 142.05162 | 35254 ft | 501 kts | 145° |
| 2026-05-05 19:39 | -33.71324 | 142.10128 | 35251 ft | 501 kts | 145° |
| 2026-05-05 19:40 | -33.76901 | 142.15062 | 35262 ft | 501 kts | 145° |
| 2026-05-05 19:40 | -33.82517 | 142.20039 | 35254 ft | 502 kts | 145° |
| 2026-05-05 19:41 | -33.88135 | 142.25025 | 35249 ft | 502 kts | 145° |
| 2026-05-05 19:41 | -33.93751 | 142.30019 | 35253 ft | 502 kts | 145° |
| 2026-05-05 19:42 | -33.99368 | 142.35022 | 35254 ft | 502 kts | 145° |
| 2026-05-05 19:42 | -34.04980 | 142.40029 | 35250 ft | 502 kts | 145° |
| 2026-05-05 19:43 | -34.10597 | 142.45048 | 35250 ft | 503 kts | 145° |
| 2026-05-05 19:43 | -34.16213 | 142.50075 | 35253 ft | 503 kts | 145° |
| 2026-05-05 19:44 | -34.21836 | 142.55117 | 35251 ft | 503 kts | 145° |
| 2026-05-05 19:44 | -34.27459 | 142.60168 | 35250 ft | 504 kts | 145° |
| 2026-05-05 19:45 | -34.33083 | 142.65228 | 35246 ft | 504 kts | 145° |
| 2026-05-05 19:45 | -34.38706 | 142.70297 | 35248 ft | 504 kts | 144° |
| 2026-05-05 19:46 | -34.44328 | 142.75372 | 35247 ft | 504 kts | 144° |
| 2026-05-05 19:46 | -34.49943 | 142.80450 | 35245 ft | 504 kts | 144° |
| 2026-05-05 19:47 | -34.55552 | 142.85532 | 35241 ft | 503 kts | 144° |
| 2026-05-05 19:47 | -34.61158 | 142.90620 | 35243 ft | 503 kts | 144° |
| 2026-05-05 19:48 | -34.66755 | 142.95709 | 35258 ft | 502 kts | 144° |
| 2026-05-05 19:48 | -34.72354 | 143.00807 | 35245 ft | 503 kts | 144° |
| 2026-05-05 19:49 | -34.77955 | 143.05917 | 35244 ft | 504 kts | 144° |
| 2026-05-05 19:49 | -34.83560 | 143.11040 | 35239 ft | 504 kts | 144° |
| 2026-05-05 19:50 | -34.89163 | 143.16170 | 35240 ft | 504 kts | 144° |
| 2026-05-05 19:50 | -34.94766 | 143.21308 | 35239 ft | 504 kts | 144° |
| 2026-05-05 19:51 | -35.00543 | 143.26134 | 35252 ft | 503 kts | 150° |
| 2026-05-05 19:51 | -35.06477 | 143.30546 | 35239 ft | 503 kts | 151° |
| 2026-05-05 19:52 | -35.12459 | 143.34990 | 35240 ft | 504 kts | 150° |
| 2026-05-05 19:52 | -35.18428 | 143.39479 | 35236 ft | 504 kts | 150° |
| 2026-05-05 19:53 | -35.24388 | 143.43989 | 35237 ft | 504 kts | 150° |
| 2026-05-05 19:53 | -35.30349 | 143.48512 | 35241 ft | 504 kts | 150° |
| 2026-05-05 19:54 | -35.36314 | 143.53043 | 35239 ft | 505 kts | 150° |
| 2026-05-05 19:54 | -35.42283 | 143.57582 | 35233 ft | 505 kts | 150° |
| 2026-05-05 19:55 | -35.48247 | 143.62126 | 35236 ft | 505 kts | 150° |
| 2026-05-05 19:55 | -35.54206 | 143.66674 | 35242 ft | 505 kts | 150° |
| 2026-05-05 19:56 | -35.60171 | 143.71235 | 35231 ft | 505 kts | 150° |
| 2026-05-05 19:56 | -35.66131 | 143.75802 | 35235 ft | 505 kts | 150° |
| 2026-05-05 19:57 | -35.72088 | 143.80373 | 35230 ft | 505 kts | 150° |
| 2026-05-05 19:57 | -35.74065 | 143.81892 | 35037 ft | 506 kts | 150° |
| 2026-05-05 19:57 | -35.78064 | 143.84967 | 34384 ft | 505 kts | 150° |
| 2026-05-05 19:57 | -35.81023 | 143.87246 | 33878 ft | 499 kts | 150° |
| 2026-05-05 19:58 | -35.83944 | 143.89498 | 33370 ft | 490 kts | 150° |
| 2026-05-05 19:58 | -35.86791 | 143.91696 | 32912 ft | 477 kts | 150° |
| 2026-05-05 19:58 | -35.89584 | 143.93853 | 32481 ft | 472 kts | 150° |
| 2026-05-05 19:58 | -35.92357 | 143.95994 | 32029 ft | 468 kts | 150° |
| 2026-05-05 19:59 | -35.95103 | 143.98115 | 31587 ft | 464 kts | 150° |
| 2026-05-05 19:59 | -35.97823 | 144.00219 | 31156 ft | 460 kts | 150° |
| 2026-05-05 19:59 | -36.00521 | 144.02307 | 30731 ft | 456 kts | 150° |
| 2026-05-05 19:59 | -36.03200 | 144.04382 | 30277 ft | 453 kts | 150° |
| 2026-05-05 20:00 | -36.05859 | 144.06444 | 29786 ft | 449 kts | 150° |
| 2026-05-05 20:00 | -36.08493 | 144.08489 | 29342 ft | 445 kts | 150° |
| 2026-05-05 20:00 | -36.11065 | 144.10487 | 28910 ft | 441 kts | 150° |
| 2026-05-05 20:00 | -36.13652 | 144.12499 | 28475 ft | 437 kts | 150° |
| 2026-05-05 20:01 | -36.16213 | 144.14492 | 28042 ft | 434 kts | 150° |
| 2026-05-05 20:01 | -36.18759 | 144.16473 | 27605 ft | 430 kts | 150° |
| 2026-05-05 20:01 | -36.20462 | 144.17801 | 27324 ft | 428 kts | 150° |
| 2026-05-05 20:01 | -36.22980 | 144.19763 | 26897 ft | 425 kts | 150° |
| 2026-05-05 20:02 | -36.25474 | 144.21709 | 26476 ft | 422 kts | 150° |
| 2026-05-05 20:02 | -36.28745 | 144.24264 | 25926 ft | 419 kts | 149° |
| 2026-05-05 20:02 | -36.30414 | 144.25569 | 25641 ft | 418 kts | 149° |
| 2026-05-05 20:02 | -36.32850 | 144.27476 | 25239 ft | 415 kts | 149° |
| 2026-05-05 20:03 | -36.35288 | 144.29383 | 24833 ft | 413 kts | 149° |
| 2026-05-05 20:03 | -36.37714 | 144.31281 | 24433 ft | 411 kts | 148° |
| 2026-05-05 20:03 | -36.40130 | 144.33173 | 24026 ft | 410 kts | 148° |
| 2026-05-05 20:03 | -36.42536 | 144.35060 | 23572 ft | 409 kts | 148° |
| 2026-05-05 20:04 | -36.44937 | 144.36946 | 23116 ft | 407 kts | 148° |
| 2026-05-05 20:04 | -36.47322 | 144.38820 | 22688 ft | 404 kts | 148° |
| 2026-05-05 20:04 | -36.49692 | 144.40683 | 22273 ft | 402 kts | 148° |
| 2026-05-05 20:04 | -36.52043 | 144.42534 | 21868 ft | 399 kts | 148° |
| 2026-05-05 20:05 | -36.54386 | 144.44378 | 21467 ft | 397 kts | 148° |
| 2026-05-05 20:05 | -36.56713 | 144.46212 | 21065 ft | 395 kts | 148° |
| 2026-05-05 20:05 | -36.58994 | 144.48011 | 20674 ft | 393 kts | 148° |
| 2026-05-05 20:05 | -36.61297 | 144.49828 | 20274 ft | 391 kts | 148° |
| 2026-05-05 20:06 | -36.63590 | 144.51638 | 19876 ft | 389 kts | 147° |
| 2026-05-05 20:06 | -36.65872 | 144.53442 | 19483 ft | 388 kts | 148° |
| 2026-05-05 20:06 | -36.68148 | 144.55242 | 19085 ft | 387 kts | 148° |
| 2026-05-05 20:06 | -36.70418 | 144.57039 | 18687 ft | 386 kts | 148° |
| 2026-05-05 20:07 | -36.72682 | 144.58832 | 18250 ft | 385 kts | 148° |
| 2026-05-05 20:07 | -36.74949 | 144.60627 | 17809 ft | 384 kts | 148° |
| 2026-05-05 20:07 | -36.77196 | 144.62409 | 17389 ft | 383 kts | 148° |
| 2026-05-05 20:07 | -36.79494 | 144.64058 | 16971 ft | 380 kts | 155° |
| 2026-05-05 20:08 | -36.81926 | 144.65261 | 16568 ft | 374 kts | 163° |
| 2026-05-05 20:08 | -36.84432 | 144.66074 | 16167 ft | 371 kts | 171° |
| 2026-05-05 20:08 | -36.86968 | 144.66633 | 15769 ft | 369 kts | 172° |
| 2026-05-05 20:08 | -36.89496 | 144.67168 | 15383 ft | 368 kts | 172° |
| 2026-05-05 20:09 | -36.92015 | 144.67701 | 14981 ft | 367 kts | 172° |
| 2026-05-05 20:09 | -36.94507 | 144.68236 | 14584 ft | 362 kts | 172° |
| 2026-05-05 20:09 | -36.96986 | 144.68775 | 14197 ft | 361 kts | 172° |
| 2026-05-05 20:09 | -36.99459 | 144.69317 | 13776 ft | 361 kts | 172° |
| 2026-05-05 20:10 | -37.01908 | 144.69857 | 13334 ft | 353 kts | 172° |
| 2026-05-05 20:10 | -37.04320 | 144.70391 | 12942 ft | 350 kts | 172° |
| 2026-05-05 20:10 | -37.06714 | 144.70921 | 12557 ft | 349 kts | 172° |
| 2026-05-05 20:10 | -37.09101 | 144.71450 | 12175 ft | 348 kts | 172° |
| 2026-05-05 20:11 | -37.11484 | 144.71978 | 11783 ft | 348 kts | 172° |
| 2026-05-05 20:11 | -37.13853 | 144.72504 | 11397 ft | 343 kts | 172° |
| 2026-05-05 20:11 | -37.16177 | 144.73021 | 11020 ft | 337 kts | 172° |
| 2026-05-05 20:11 | -37.18475 | 144.73566 | 10763 ft | 333 kts | 171° |
| 2026-05-05 20:12 | -37.20699 | 144.74160 | 10614 ft | 319 kts | 170° |
| 2026-05-05 20:12 | -37.22804 | 144.74737 | 10451 ft | 300 kts | 170° |
| 2026-05-05 20:12 | -37.24792 | 144.75278 | 10345 ft | 286 kts | 171° |
| 2026-05-05 20:12 | -37.26709 | 144.75792 | 10233 ft | 277 kts | 171° |
| 2026-05-05 20:13 | -37.28595 | 144.76295 | 9950 ft | 279 kts | 171° |
| 2026-05-05 20:13 | -37.30509 | 144.76804 | 9651 ft | 284 kts | 171° |
| 2026-05-05 20:13 | -37.32452 | 144.77321 | 9327 ft | 286 kts | 171° |
| 2026-05-05 20:13 | -37.34397 | 144.77790 | 9020 ft | 283 kts | 174° |
| 2026-05-05 20:14 | -37.36319 | 144.78124 | 8675 ft | 282 kts | 175° |
| 2026-05-05 20:14 | -37.38243 | 144.78439 | 8460 ft | 276 kts | 175° |
| 2026-05-05 20:14 | -37.40138 | 144.78758 | 8240 ft | 273 kts | 175° |
| 2026-05-05 20:14 | -37.42017 | 144.79083 | 8043 ft | 274 kts | 175° |
| 2026-05-05 20:15 | -37.43912 | 144.79414 | 7840 ft | 276 kts | 175° |
| 2026-05-05 20:15 | -37.45816 | 144.79709 | 7622 ft | 273 kts | 182° |
| 2026-05-05 20:15 | -37.47600 | 144.79252 | 7429 ft | 261 kts | 206° |
| 2026-05-05 20:15 | -37.49316 | 144.78371 | 7252 ft | 266 kts | 204° |
| 2026-05-05 20:16 | -37.51061 | 144.77533 | 7067 ft | 269 kts | 204° |
| 2026-05-05 20:16 | -37.52814 | 144.76702 | 6848 ft | 267 kts | 204° |
| 2026-05-05 20:16 | -37.54503 | 144.75904 | 6639 ft | 260 kts | 204° |
| 2026-05-05 20:16 | -37.56199 | 144.75100 | 6449 ft | 261 kts | 203° |
| 2026-05-05 20:17 | -37.57902 | 144.74293 | 6242 ft | 262 kts | 203° |
| 2026-05-05 20:17 | -37.59645 | 144.73653 | 6036 ft | 262 kts | 189° |
| 2026-05-05 20:17 | -37.61458 | 144.73499 | 5853 ft | 263 kts | 184° |
| 2026-05-05 20:17 | -37.63279 | 144.73438 | 5667 ft | 263 kts | 184° |
| 2026-05-05 20:18 | -37.65106 | 144.73353 | 5473 ft | 262 kts | 185° |
| 2026-05-05 20:18 | -37.66923 | 144.73243 | 5271 ft | 259 kts | 185° |
| 2026-05-05 20:18 | -37.68708 | 144.73124 | 5083 ft | 256 kts | 186° |
| 2026-05-05 20:18 | -37.70464 | 144.73001 | 4908 ft | 256 kts | 185° |
| 2026-05-05 20:19 | -37.72248 | 144.72939 | 4705 ft | 256 kts | 182° |
| 2026-05-05 20:19 | -37.74029 | 144.72922 | 4509 ft | 256 kts | 182° |
| 2026-05-05 20:19 | -37.75801 | 144.72907 | 4317 ft | 255 kts | 182° |
| 2026-05-05 20:19 | -37.77574 | 144.72890 | 4127 ft | 254 kts | 183° |
| 2026-05-05 20:20 | -37.79340 | 144.72868 | 3933 ft | 253 kts | 183° |
| 2026-05-05 20:20 | -37.81077 | 144.73034 | 3719 ft | 249 kts | 163° |
| 2026-05-05 20:20 | -37.82467 | 144.74199 | 3543 ft | 236 kts | 130° |
| 2026-05-05 20:20 | -37.83322 | 144.75917 | 3398 ft | 226 kts | 118° |
| 2026-05-05 20:21 | -37.84051 | 144.77644 | 3196 ft | 218 kts | 115° |
| 2026-05-05 20:21 | -37.84345 | 144.79485 | 3007 ft | 215 kts | 81° |
| 2026-05-05 20:21 | -37.84087 | 144.81379 | 2940 ft | 220 kts | 79° |
| 2026-05-05 20:21 | -37.83861 | 144.83258 | 2792 ft | 211 kts | 80° |
| 2026-05-05 20:22 | -37.83532 | 144.84998 | 2541 ft | 195 kts | 56° |
| 2026-05-05 20:22 | -37.82583 | 144.86080 | 2456 ft | 184 kts | 19° |
| 2026-05-05 20:22 | -37.81315 | 144.86473 | 2324 ft | 191 kts | 356° |
| 2026-05-05 20:22 | -37.80014 | 144.86266 | 2191 ft | 187 kts | 348° |
| 2026-05-05 20:23 | -37.78745 | 144.86021 | 2026 ft | 183 kts | 348° |
| 2026-05-05 20:23 | -37.77504 | 144.85786 | 1885 ft | 178 kts | 348° |
| 2026-05-05 20:23 | -37.76318 | 144.85562 | 1750 ft | 168 kts | 348° |
| 2026-05-05 20:23 | -37.75177 | 144.85345 | 1615 ft | 170 kts | 348° |
| 2026-05-05 20:24 | -37.74052 | 144.85131 | 1397 ft | 156 kts | 349° |
| 2026-05-05 20:24 | -37.73022 | 144.84937 | 1170 ft | 145 kts | 351° |
| 2026-05-05 20:24 | -37.72033 | 144.84750 | 1021 ft | 145 kts | 351° |
| 2026-05-05 20:24 | -37.71081 | 144.84571 | 843 ft | 146 kts | 351° |
| 2026-05-05 20:25 | -37.70078 | 144.84384 | 661 ft | 146 kts | 351° |
| 2026-05-05 20:25 | -37.69086 | 144.84179 | 483 ft | 145 kts | 350° |
| 2026-05-05 20:25 | -37.68086 | 144.83998 | 376 ft | 144 kts | 352° |
| 2026-05-05 20:25 | -37.67234 | 144.83847 | 383 ft | 87 kts | 351° |
| 2026-05-05 20:26 | -37.66904 | 144.83784 | 394 ft | 34 kts | 352° |
| 2026-05-05 20:26 | -37.66605 | 144.83731 | 406 ft | 52 kts | 352° |
| 2026-05-05 20:26 | -37.66324 | 144.83679 | 410 ft | 41 kts | 351° |
| 2026-05-05 20:26 | -37.66186 | 144.83663 | 414 ft | 17 kts | 18° |
| 2026-05-05 20:27 | -37.66168 | 144.83774 | 418 ft | 13 kts | 96° |
| 2026-05-05 20:27 | -37.66204 | 144.83862 | 411 ft | 12 kts | 151° |
| 2026-05-05 20:27 | -37.66283 | 144.83889 | 411 ft | 12 kts | 168° |
| 2026-05-05 20:27 | -37.66368 | 144.83906 | 410 ft | 13 kts | 171° |
| 2026-05-05 20:28 | -37.66464 | 144.83923 | 408 ft | 16 kts | 172° |
| 2026-05-05 20:28 | -37.66585 | 144.83945 | 402 ft | 17 kts | 171° |
| 2026-05-05 20:28 | -37.66700 | 144.83982 | 399 ft | 17 kts | 136° |
| 2026-05-05 20:28 | -37.66709 | 144.84128 | 400 ft | 15 kts | 83° |
| 2026-05-05 20:29 | -37.66696 | 144.84251 | 399 ft | 14 kts | 81° |
| 2026-05-05 20:29 | -37.66683 | 144.84358 | 402 ft | 11 kts | 82° |
| 2026-05-05 20:29 | -37.66678 | 144.84404 | 399 ft | 2 kts | 82° |
| 2026-05-05 20:29 | -37.66676 | 144.84420 | 399 ft | 2 kts | 81° |
| 2026-05-05 20:30 | -37.66671 | 144.84457 | 403 ft | 5 kts | 81° |
| 2026-05-05 20:30 | -37.66668 | 144.84498 | 403 ft | 5 kts | 92° |
| 2026-05-05 20:30 | -37.66683 | 144.84529 | 399 ft | 2 kts | 144° |
| 2026-05-05 20:30 | -37.66697 | 144.84531 | 402 ft | 2 kts | 170° |
| 2026-05-05 20:31 | -37.66720 | 144.84536 | 401 ft | 3 kts | 171° |
| 2026-05-05 20:31 | -37.66739 | 144.84540 | 401 ft | 2 kts | 171° |
| 2026-05-05 20:31 | -37.66749 | 144.84542 | 398 ft | 1 kts | 172° |
| 2026-05-05 20:31 | -37.66753 | 144.84543 | 400 ft | 0 kts | 172° |